Wetterdaten: Sonntag, 01.06.2014
Datum Zeit Temp. Aussen +5cm Feuchte Auss Luftdruck Regen Sonnenschein Regendauer UV Solar Windben
01.06.2014 00:00 13,2 C 11,7 C 76 % 1021,8 hPa 0,0 l/m 0 min 0 min 0,0 UV-I 0 W/m 5,1 km/h (1 Bft)
01.06.2014 00:02 13,2 C 11,7 C 76 % 1021,7 hPa 0,0 l/m 0 min 0 min 0,0 UV-I 0 W/m 0,0 km/h (0 Bft)
01.06.2014 00:09 13,0 C 11,7 C 76 % 1021,7 hPa 0,0 l/m 0 min 0 min 0,0 UV-I 0 W/m 2,6 km/h (1 Bft)
01.06.2014 00:10 13,0 C 11,7 C 76 % 1021,7 hPa 0,0 l/m 0 min 0 min 0,0 UV-I 0 W/m 0,0 km/h (0 Bft)
01.06.2014 00:12 12,9 C 11,7 C 77 % 1021,7 hPa 0,0 l/m 0 min 0 min 0,0 UV-I 0 W/m 0,0 km/h (0 Bft)
01.06.2014 00:14 12,9 C 11,7 C 77 % 1021,7 hPa 0,0 l/m 0 min 0 min 0,0 UV-I 0 W/m 0,0 km/h (0 Bft)
01.06.2014 00:16 12,8 C 11,7 C 77 % 1021,8 hPa 0,0 l/m 0 min 0 min 0,0 UV-I 0 W/m 0,0 km/h (0 Bft)
01.06.2014 00:18 12,7 C 11,1 C 78 % 1021,7 hPa 0,0 l/m 0 min 0 min 0,0 UV-I 0 W/m 0,0 km/h (0 Bft)
01.06.2014 00:20 12,7 C 11,1 C 78 % 1021,8 hPa 0,0 l/m 0 min 0 min 0,0 UV-I 0 W/m 0,0 km/h (0 Bft)
01.06.2014 00:22 12,6 C 11,1 C 78 % 1021,7 hPa 0,0 l/m 0 min 0 min 0,0 UV-I 0 W/m 0,0 km/h (0 Bft)
01.06.2014 00:24 12,6 C 11,1 C 78 % 1021,7 hPa 0,0 l/m 0 min 0 min 0,0 UV-I 0 W/m 0,0 km/h (0 Bft)
01.06.2014 00:26 12,6 C 11,1 C 78 % 1021,7 hPa 0,0 l/m 0 min 0 min 0,0 UV-I 0 W/m 2,6 km/h (1 Bft)
01.06.2014 00:28 12,6 C 11,1 C 78 % 1021,7 hPa 0,0 l/m 0 min 0 min 0,0 UV-I 0 W/m 0,0 km/h (0 Bft)
01.06.2014 00:30 12,6 C 11,1 C 78 % 1021,7 hPa 0,0 l/m 0 min 0 min 0,0 UV-I 0 W/m 2,6 km/h (1 Bft)
01.06.2014 00:32 12,6 C 11,1 C 78 % 1021,7 hPa 0,0 l/m 0 min 0 min 0,0 UV-I 0 W/m 0,0 km/h (0 Bft)
01.06.2014 00:34 12,6 C 11,1 C 78 % 1021,7 hPa 0,0 l/m 0 min 0 min 0,0 UV-I 0 W/m 0,0 km/h (0 Bft)
01.06.2014 00:36 12,6 C 11,1 C 78 % 1021,7 hPa 0,0 l/m 0 min 0 min 0,0 UV-I 0 W/m 0,0 km/h (0 Bft)
01.06.2014 00:38 12,5 C 11,1 C 78 % 1021,7 hPa 0,0 l/m 0 min 0 min 0,0 UV-I 0 W/m 7,7 km/h (2 Bft)
01.06.2014 00:40 12,4 C 11,1 C 79 % 1021,7 hPa 0,0 l/m 0 min 0 min 0,0 UV-I 0 W/m 0,0 km/h (0 Bft)
01.06.2014 00:42 12,4 C 11,1 C 79 % 1021,7 hPa 0,0 l/m 0 min 0 min 0,0 UV-I 0 W/m 5,1 km/h (1 Bft)
01.06.2014 00:44 12,4 C 11,1 C 79 % 1021,7 hPa 0,0 l/m 0 min 0 min 0,0 UV-I 0 W/m 0,0 km/h (0 Bft)
01.06.2014 00:46 12,3 C 11,1 C 79 % 1021,7 hPa 0,0 l/m 0 min 0 min 0,0 UV-I 0 W/m 0,0 km/h (0 Bft)
01.06.2014 00:48 12,3 C 11,1 C 79 % 1021,7 hPa 0,0 l/m 0 min 0 min 0,0 UV-I 0 W/m 0,0 km/h (0 Bft)
01.06.2014 00:50 12,3 C 11,1 C 79 % 1021,8 hPa 0,0 l/m 0 min 0 min 0,0 UV-I 0 W/m 0,0 km/h (0 Bft)
01.06.2014 00:52 12,2 C 11,1 C 79 % 1021,8 hPa 0,0 l/m 0 min 0 min 0,0 UV-I 0 W/m 0,0 km/h (0 Bft)
01.06.2014 00:54 12,2 C 11,1 C 80 % 1021,8 hPa 0,0 l/m 0 min 0 min 0,0 UV-I 0 W/m 0,0 km/h (0 Bft)
01.06.2014 00:56 12,2 C 10,6 C 80 % 1021,7 hPa 0,0 l/m 0 min 0 min 0,0 UV-I 0 W/m 2,6 km/h (1 Bft)
01.06.2014 00:58 12,2 C 10,6 C 80 % 1021,7 hPa 0,0 l/m 0 min 0 min 0,0 UV-I 0 W/m 0,0 km/h (0 Bft)
01.06.2014 01:00 12,2 C 10,6 C 80 % 1021,7 hPa 0,0 l/m 0 min 0 min 0,0 UV-I 0 W/m 0,0 km/h (0 Bft)
01.06.2014 01:02 12,2 C 11,1 C 80 % 1021,7 hPa 0,0 l/m 0 min 0 min 0,0 UV-I 0 W/m 0,0 km/h (0 Bft)
01.06.2014 01:06 12,1 C 10,6 C 80 % 1021,7 hPa 0,0 l/m 0 min 0 min 0,0 UV-I 0 W/m 0,0 km/h (0 Bft)
01.06.2014 01:08 12,1 C 10,6 C 80 % 1021,7 hPa 0,0 l/m 0 min 0 min 0,0 UV-I 0 W/m 0,0 km/h (0 Bft)
01.06.2014 01:10 12,1 C 10,6 C 80 % 1021,8 hPa 0,0 l/m 0 min 0 min 0,0 UV-I 0 W/m 0,0 km/h (0 Bft)
01.06.2014 01:12 12,1 C 10,6 C 80 % 1021,8 hPa 0,0 l/m 0 min 0 min 0,0 UV-I 0 W/m 0,0 km/h (0 Bft)
01.06.2014 01:14 12,0 C 10,6 C 80 % 1021,7 hPa 0,0 l/m 0 min 0 min 0,0 UV-I 0 W/m 0,0 km/h (0 Bft)
01.06.2014 01:16 12,0 C 10,6 C 81 % 1021,7 hPa 0,0 l/m 0 min 0 min 0,0 UV-I 0 W/m 0,0 km/h (0 Bft)
01.06.2014 01:18 11,9 C 10,6 C 81 % 1021,7 hPa 0,0 l/m 0 min 0 min 0,0 UV-I 0 W/m 0,0 km/h (0 Bft)
01.06.2014 01:20 11,9 C 10,6 C 81 % 1021,7 hPa 0,0 l/m 0 min 0 min 0,0 UV-I 0 W/m 0,0 km/h (0 Bft)
01.06.2014 01:22 11,8 C 10,6 C 81 % 1021,7 hPa 0,0 l/m 0 min 0 min 0,0 UV-I 0 W/m 0,0 km/h (0 Bft)
01.06.2014 01:24 11,8 C 10,6 C 81 % 1021,7 hPa 0,0 l/m 0 min 0 min 0,0 UV-I 0 W/m 0,0 km/h (0 Bft)
01.06.2014 01:26 11,8 C 10,6 C 81 % 1021,7 hPa 0,0 l/m 0 min 0 min 0,0 UV-I 0 W/m 2,6 km/h (1 Bft)
01.06.2014 01:28 11,8 C 10,6 C 81 % 1021,7 hPa 0,0 l/m 0 min 0 min 0,0 UV-I 0 W/m 0,0 km/h (0 Bft)
01.06.2014 01:30 11,8 C 10,0 C 81 % 1021,6 hPa 0,0 l/m 0 min 0 min 0,0 UV-I 0 W/m 0,0 km/h (0 Bft)
01.06.2014 01:32 11,7 C 10,0 C 81 % 1021,6 hPa 0,0 l/m 0 min 0 min 0,0 UV-I 0 W/m 0,0 km/h (0 Bft)
01.06.2014 01:34 11,7 C 10,0 C 82 % 1021,6 hPa 0,0 l/m 0 min 0 min 0,0 UV-I 0 W/m 0,0 km/h (0 Bft)
01.06.2014 01:36 11,6 C 10,0 C 82 % 1021,6 hPa 0,0 l/m 0 min 0 min 0,0 UV-I 0 W/m 0,0 km/h (0 Bft)
01.06.2014 01:38 11,5 C 10,0 C 82 % 1021,6 hPa 0,0 l/m 0 min 0 min 0,0 UV-I 0 W/m 0,0 km/h (0 Bft)
01.06.2014 01:40 11,4 C 10,0 C 82 % 1021,6 hPa 0,0 l/m 0 min 0 min 0,0 UV-I 0 W/m 0,0 km/h (0 Bft)
01.06.2014 01:42 11,4 C 10,0 C 83 % 1021,7 hPa 0,0 l/m 0 min 0 min 0,0 UV-I 0 W/m 0,0 km/h (0 Bft)
01.06.2014 01:44 11,3 C 9,4 C 83 % 1021,6 hPa 0,0 l/m 0 min 0 min 0,0 UV-I 0 W/m 0,0 km/h (0 Bft)
01.06.2014 01:46 11,3 C 9,4 C 83 % 1021,6 hPa 0,0 l/m 0 min 0 min 0,0 UV-I 0 W/m 0,0 km/h (0 Bft)
01.06.2014 01:48 11,3 C 9,4 C 83 % 1021,6 hPa 0,0 l/m 0 min 0 min 0,0 UV-I 0 W/m 0,0 km/h (0 Bft)
01.06.2014 01:50 11,3 C 9,4 C 83 % 1021,6 hPa 0,0 l/m 0 min 0 min 0,0 UV-I 0 W/m 0,0 km/h (0 Bft)
01.06.2014 01:52 11,2 C 9,4 C 83 % 1021,6 hPa 0,0 l/m 0 min 0 min 0,0 UV-I 0 W/m 0,0 km/h (0 Bft)
01.06.2014 01:54 11,2 C 9,4 C 83 % 1021,6 hPa 0,0 l/m 0 min 0 min 0,0 UV-I 0 W/m 0,0 km/h (0 Bft)
01.06.2014 01:56 11,2 C 9,4 C 83 % 1021,6 hPa 0,0 l/m 0 min 0 min 0,0 UV-I 0 W/m 0,0 km/h (0 Bft)
01.06.2014 01:58 11,1 C 9,4 C 83 % 1021,6 hPa 0,0 l/m 0 min 0 min 0,0 UV-I 0 W/m 0,0 km/h (0 Bft)
01.06.2014 02:00 11,1 C 9,4 C 83 % 1021,6 hPa 0,0 l/m 0 min 0 min 0,0 UV-I 0 W/m 0,0 km/h (0 Bft)
01.06.2014 02:02 11,1 C 9,4 C 83 % 1021,6 hPa 0,0 l/m 0 min 0 min 0,0 UV-I 0 W/m 0,0 km/h (0 Bft)
01.06.2014 02:06 10,9 C 9,4 C 83 % 1021,6 hPa 0,0 l/m 0 min 0 min 0,0 UV-I 0 W/m 0,0 km/h (0 Bft)
01.06.2014 02:08 10,9 C 9,4 C 84 % 1021,7 hPa 0,0 l/m 0 min 0 min 0,0 UV-I 0 W/m 0,0 km/h (0 Bft)
01.06.2014 02:10 10,9 C 9,4 C 84 % 1021,6 hPa 0,0 l/m 0 min 0 min 0,0 UV-I 0 W/m 0,0 km/h (0 Bft)
01.06.2014 02:12 10,9 C 9,4 C 84 % 1021,7 hPa 0,0 l/m 0 min 0 min 0,0 UV-I 0 W/m 0,0 km/h (0 Bft)
01.06.2014 02:14 10,8 C 9,4 C 84 % 1021,7 hPa 0,0 l/m 0 min 0 min 0,0 UV-I 0 W/m 0,0 km/h (0 Bft)
01.06.2014 02:16 10,8 C 9,4 C 84 % 1021,7 hPa 0,0 l/m 0 min 0 min 0,0 UV-I 0 W/m 0,0 km/h (0 Bft)
01.06.2014 02:18 10,8 C 8,9 C 84 % 1021,7 hPa 0,0 l/m 0 min 0 min 0,0 UV-I 0 W/m 0,0 km/h (0 Bft)
01.06.2014 02:20 10,7 C 8,9 C 84 % 1021,7 hPa 0,0 l/m 0 min 0 min 0,0 UV-I 0 W/m 0,0 km/h (0 Bft)
01.06.2014 02:22 10,7 C 8,9 C 84 % 1021,7 hPa 0,0 l/m 0 min 0 min 0,0 UV-I 0 W/m 0,0 km/h (0 Bft)
01.06.2014 02:24 10,7 C 8,9 C 84 % 1021,6 hPa 0,0 l/m 0 min 0 min 0,0 UV-I 0 W/m 0,0 km/h (0 Bft)
01.06.2014 02:26 10,7 C 8,9 C 84 % 1021,6 hPa 0,0 l/m 0 min 0 min 0,0 UV-I 0 W/m 0,0 km/h (0 Bft)
01.06.2014 02:28 10,7 C 8,9 C 84 % 1021,6 hPa 0,0 l/m 0 min 0 min 0,0 UV-I 0 W/m 0,0 km/h (0 Bft)
01.06.2014 02:30 10,6 C 8,9 C 84 % 1021,6 hPa 0,0 l/m 0 min 0 min 0,0 UV-I 0 W/m 0,0 km/h (0 Bft)
01.06.2014 02:32 10,6 C 8,9 C 85 % 1021,6 hPa 0,0 l/m 0 min 0 min 0,0 UV-I 0 W/m 0,0 km/h (0 Bft)
01.06.2014 02:34 10,6 C 8,9 C 85 % 1021,6 hPa 0,0 l/m 0 min 0 min 0,0 UV-I 0 W/m 0,0 km/h (0 Bft)
01.06.2014 02:36 10,6 C 8,9 C 85 % 1021,6 hPa 0,0 l/m 0 min 0 min 0,0 UV-I 0 W/m 0,0 km/h (0 Bft)
01.06.2014 02:38 10,6 C 8,9 C 85 % 1021,6 hPa 0,0 l/m 0 min 0 min 0,0 UV-I 0 W/m 0,0 km/h (0 Bft)
01.06.2014 02:40 10,6 C 8,9 C 85 % 1021,6 hPa 0,0 l/m 0 min 0 min 0,0 UV-I 0 W/m 0,0 km/h (0 Bft)
01.06.2014 02:42 10,6 C 8,9 C 85 % 1021,6 hPa 0,0 l/m 0 min 0 min 0,0 UV-I 0 W/m 0,0 km/h (0 Bft)
01.06.2014 02:44 10,6 C 8,9 C 85 % 1021,6 hPa 0,0 l/m 0 min 0 min 0,0 UV-I 0 W/m 0,0 km/h (0 Bft)
01.06.2014 02:46 10,6 C 8,9 C 85 % 1021,6 hPa 0,0 l/m 0 min 0 min 0,0 UV-I 0 W/m 0,0 km/h (0 Bft)
01.06.2014 02:48 10,6 C 8,9 C 84 % 1021,6 hPa 0,0 l/m 0 min 0 min 0,0 UV-I 0 W/m 0,0 km/h (0 Bft)
01.06.2014 02:50 10,5 C 8,9 C 85 % 1021,6 hPa 0,0 l/m 0 min 0 min 0,0 UV-I 0 W/m 0,0 km/h (0 Bft)
01.06.2014 02:52 10,5 C 8,9 C 85 % 1021,7 hPa 0,0 l/m 0 min 0 min 0,0 UV-I 0 W/m 0,0 km/h (0 Bft)
01.06.2014 02:54 10,4 C 8,9 C 85 % 1021,6 hPa 0,0 l/m 0 min 0 min 0,0 UV-I 0 W/m 0,0 km/h (0 Bft)
01.06.2014 02:56 10,4 C 8,9 C 85 % 1021,6 hPa 0,0 l/m 0 min 0 min 0,0 UV-I 0 W/m 0,0 km/h (0 Bft)
01.06.2014 02:58 10,3 C 8,9 C 85 % 1021,7 hPa 0,0 l/m 0 min 0 min 0,0 UV-I 0 W/m 0,0 km/h (0 Bft)
01.06.2014 03:00 10,3 C 8,9 C 85 % 1021,6 hPa 0,0 l/m 0 min 0 min 0,0 UV-I 0 W/m 0,0 km/h (0 Bft)
01.06.2014 03:02 10,2 C 8,3 C 86 % 1021,6 hPa 0,0 l/m 0 min 0 min 0,0 UV-I 0 W/m 0,0 km/h (0 Bft)
01.06.2014 03:06 10,2 C 8,3 C 86 % 1021,6 hPa 0,0 l/m 0 min 0 min 0,0 UV-I 0 W/m 0,0 km/h (0 Bft)
01.06.2014 03:08 10,1 C 8,3 C 86 % 1021,5 hPa 0,0 l/m 0 min 0 min 0,0 UV-I 0 W/m 0,0 km/h (0 Bft)
01.06.2014 03:10 10,1 C 8,3 C 86 % 1021,5 hPa 0,0 l/m 0 min 0 min 0,0 UV-I 0 W/m 0,0 km/h (0 Bft)
01.06.2014 03:12 10,1 C 8,3 C 86 % 1021,5 hPa 0,0 l/m 0 min 0 min 0,0 UV-I 0 W/m 0,0 km/h (0 Bft)
01.06.2014 03:14 10,1 C 8,3 C 86 % 1021,5 hPa 0,0 l/m 0 min 0 min 0,0 UV-I 0 W/m 0,0 km/h (0 Bft)
01.06.2014 03:16 10,1 C 8,3 C 86 % 1021,5 hPa 0,0 l/m 0 min 0 min 0,0 UV-I 0 W/m 0,0 km/h (0 Bft)
01.06.2014 03:18 10,0 C 8,3 C 86 % 1021,5 hPa 0,0 l/m 0 min 0 min 0,0 UV-I 0 W/m 0,0 km/h (0 Bft)
01.06.2014 03:20 9,9 C 8,3 C 87 % 1021,4 hPa 0,0 l/m 0 min 0 min 0,0 UV-I 0 W/m 0,0 km/h (0 Bft)
01.06.2014 03:22 9,9 C 8,3 C 87 % 1021,5 hPa 0,0 l/m 0 min 0 min 0,0 UV-I 0 W/m 0,0 km/h (0 Bft)
01.06.2014 03:24 9,9 C 8,3 C 87 % 1021,4 hPa 0,0 l/m 0 min 0 min 0,0 UV-I 0 W/m 0,0 km/h (0 Bft)
01.06.2014 03:26 9,9 C 8,3 C 87 % 1021,4 hPa 0,0 l/m 0 min 0 min 0,0 UV-I 0 W/m 0,0 km/h (0 Bft)
01.06.2014 03:28 9,9 C 8,3 C 87 % 1021,4 hPa 0,0 l/m 0 min 0 min 0,0 UV-I 0 W/m 0,0 km/h (0 Bft)
01.06.2014 03:30 10,0 C 8,3 C 87 % 1021,4 hPa 0,0 l/m 0 min 0 min 0,0 UV-I 0 W/m 0,0 km/h (0 Bft)
01.06.2014 03:32 10,0 C 8,9 C 87 % 1021,4 hPa 0,0 l/m 0 min 0 min 0,0 UV-I 0 W/m 0,0 km/h (0 Bft)
01.06.2014 03:34 10,0 C 8,9 C 87 % 1021,3 hPa 0,0 l/m 0 min 0 min 0,0 UV-I 0 W/m 0,0 km/h (0 Bft)
01.06.2014 03:36 10,0 C 8,3 C 87 % 1021,3 hPa 0,0 l/m 0 min 0 min 0,0 UV-I 0 W/m 0,0 km/h (0 Bft)
01.06.2014 03:38 9,9 C 8,3 C 87 % 1021,3 hPa 0,0 l/m 0 min 0 min 0,0 UV-I 0 W/m 0,0 km/h (0 Bft)
01.06.2014 03:40 9,9 C 8,3 C 87 % 1021,4 hPa 0,0 l/m 0 min 0 min 0,0 UV-I 0 W/m 0,0 km/h (0 Bft)
01.06.2014 03:42 9,8 C 8,3 C 87 % 1021,4 hPa 0,0 l/m 0 min 0 min 0,0 UV-I 0 W/m 0,0 km/h (0 Bft)
01.06.2014 03:44 9,8 C 8,3 C 87 % 1021,4 hPa 0,0 l/m 0 min 0 min 0,0 UV-I 0 W/m 0,0 km/h (0 Bft)
01.06.2014 03:46 9,8 C 8,3 C 87 % 1021,4 hPa 0,0 l/m 0 min 0 min 0,0 UV-I 0 W/m 0,0 km/h (0 Bft)
01.06.2014 03:48 9,7 C 8,3 C 88 % 1021,4 hPa 0,0 l/m 0 min 0 min 0,0 UV-I 0 W/m 0,0 km/h (0 Bft)
01.06.2014 03:50 9,7 C 8,3 C 87 % 1021,3 hPa 0,0 l/m 0 min 0 min 0,0 UV-I 0 W/m 0,0 km/h (0 Bft)
01.06.2014 03:52 9,7 C 8,3 C 88 % 1021,4 hPa 0,0 l/m 0 min 0 min 0,0 UV-I 0 W/m 0,0 km/h (0 Bft)
01.06.2014 03:54 9,7 C 8,3 C 88 % 1021,4 hPa 0,0 l/m 0 min 0 min 0,0 UV-I 0 W/m 0,0 km/h (0 Bft)
01.06.2014 03:56 9,7 C 8,3 C 88 % 1021,4 hPa 0,0 l/m 0 min 0 min 0,0 UV-I 0 W/m 0,0 km/h (0 Bft)
01.06.2014 03:58 9,7 C 8,3 C 88 % 1021,4 hPa 0,0 l/m 0 min 0 min 0,0 UV-I 0 W/m 0,0 km/h (0 Bft)
01.06.2014 04:00 9,7 C 8,3 C 88 % 1021,4 hPa 0,0 l/m 0 min 0 min 0,0 UV-I 0 W/m 0,0 km/h (0 Bft)
01.06.2014 04:05 9,6 C 8,3 C 88 % 1021,5 hPa 0,0 l/m 0 min 0 min 0,0 UV-I 0 W/m 0,0 km/h (0 Bft)
01.06.2014 04:06 9,6 C 8,3 C 89 % 1021,4 hPa 0,0 l/m 0 min 0 min 0,0 UV-I 0 W/m 0,0 km/h (0 Bft)
01.06.2014 04:08 9,7 C 8,3 C 89 % 1021,4 hPa 0,0 l/m 0 min 0 min 0,0 UV-I 0 W/m 0,0 km/h (0 Bft)
01.06.2014 04:10 9,7 C 8,3 C 89 % 1021,4 hPa 0,0 l/m 0 min 0 min 0,0 UV-I 0 W/m 0,0 km/h (0 Bft)
01.06.2014 04:12 9,7 C 8,3 C 89 % 1021,4 hPa 0,0 l/m 0 min 0 min 0,0 UV-I 0 W/m 0,0 km/h (0 Bft)
01.06.2014 04:14 9,7 C 8,3 C 89 % 1021,4 hPa 0,0 l/m 0 min 0 min 0,0 UV-I 0 W/m 0,0 km/h (0 Bft)
01.06.2014 04:16 9,7 C 8,3 C 89 % 1021,4 hPa 0,0 l/m 0 min 0 min 0,0 UV-I 0 W/m 0,0 km/h (0 Bft)
01.06.2014 04:18 9,8 C 8,3 C 89 % 1021,4 hPa 0,0 l/m 0 min 0 min 0,0 UV-I 0 W/m 0,0 km/h (0 Bft)
01.06.2014 04:20 9,8 C 8,3 C 88 % 1021,4 hPa 0,0 l/m 0 min 0 min 0,0 UV-I 0 W/m 0,0 km/h (0 Bft)
01.06.2014 04:22 9,8 C 8,9 C 88 % 1021,4 hPa 0,0 l/m 0 min 0 min 0,0 UV-I 0 W/m 0,0 km/h (0 Bft)
01.06.2014 04:24 9,9 C 8,9 C 88 % 1021,4 hPa 0,0 l/m 0 min 0 min 0,0 UV-I 0 W/m 0,0 km/h (0 Bft)
01.06.2014 04:26 9,9 C 8,9 C 88 % 1021,5 hPa 0,0 l/m 0 min 0 min 0,0 UV-I 0 W/m 0,0 km/h (0 Bft)
01.06.2014 04:28 10,0 C 8,9 C 88 % 1021,5 hPa 0,0 l/m 0 min 0 min 0,0 UV-I 0 W/m 0,0 km/h (0 Bft)
01.06.2014 04:30 10,0 C 8,9 C 88 % 1021,5 hPa 0,0 l/m 0 min 0 min 0,0 UV-I 0 W/m 0,0 km/h (0 Bft)
01.06.2014 04:32 10,0 C 8,9 C 88 % 1021,5 hPa 0,0 l/m 0 min 0 min 0,0 UV-I 0 W/m 0,0 km/h (0 Bft)
01.06.2014 04:34 10,0 C 8,9 C 88 % 1021,4 hPa 0,0 l/m 0 min 0 min 0,0 UV-I 0 W/m 2,6 km/h (1 Bft)
01.06.2014 04:36 10,0 C 8,9 C 88 % 1021,4 hPa 0,0 l/m 0 min 0 min 0,0 UV-I 0 W/m 0,0 km/h (0 Bft)
01.06.2014 04:38 10,0 C 8,9 C 88 % 1021,4 hPa 0,0 l/m 0 min 0 min 0,0 UV-I 0 W/m 0,0 km/h (0 Bft)
01.06.2014 04:40 10,0 C 8,9 C 88 % 1021,4 hPa 0,0 l/m 0 min 0 min 0,0 UV-I 0 W/m 5,1 km/h (1 Bft)
01.06.2014 04:42 10,0 C 8,9 C 88 % 1021,5 hPa 0,0 l/m 0 min 0 min 0,0 UV-I 0 W/m 0,0 km/h (0 Bft)
01.06.2014 04:44 10,0 C 8,9 C 88 % 1021,5 hPa 0,0 l/m 0 min 0 min 0,0 UV-I 0 W/m 0,0 km/h (0 Bft)
01.06.2014 04:46 9,9 C 8,9 C 88 % 1021,5 hPa 0,0 l/m 0 min 0 min 0,0 UV-I 0 W/m 0,0 km/h (0 Bft)
01.06.2014 04:48 9,9 C 8,9 C 88 % 1021,5 hPa 0,0 l/m 0 min 0 min 0,0 UV-I 0 W/m 0,0 km/h (0 Bft)
01.06.2014 04:50 9,9 C 8,9 C 88 % 1021,5 hPa 0,0 l/m 0 min 0 min 0,0 UV-I 0 W/m 0,0 km/h (0 Bft)
01.06.2014 04:52 9,9 C 8,9 C 88 % 1021,5 hPa 0,0 l/m 0 min 0 min 0,0 UV-I 0 W/m 0,0 km/h (0 Bft)
01.06.2014 04:54 9,9 C 8,9 C 88 % 1021,4 hPa 0,0 l/m 0 min 0 min 0,0 UV-I 0 W/m 0,0 km/h (0 Bft)
01.06.2014 04:56 9,9 C 8,3 C 88 % 1021,4 hPa 0,0 l/m 0 min 0 min 0,0 UV-I 0 W/m 0,0 km/h (0 Bft)
01.06.2014 04:58 9,8 C 8,3 C 88 % 1021,4 hPa 0,0 l/m 0 min 0 min 0,0 UV-I 0 W/m 0,0 km/h (0 Bft)
01.06.2014 05:00 9,8 C 8,3 C 89 % 1021,5 hPa 0,0 l/m 0 min 0 min 0,0 UV-I 0 W/m 0,0 km/h (0 Bft)
01.06.2014 05:02 9,8 C 8,9 C 89 % 1021,5 hPa 0,0 l/m 0 min 0 min 0,0 UV-I 0 W/m 0,0 km/h (0 Bft)
01.06.2014 05:06 9,8 C 8,9 C 89 % 1021,5 hPa 0,0 l/m 0 min 0 min 0,0 UV-I 0 W/m 0,0 km/h (0 Bft)
01.06.2014 05:08 9,8 C 8,9 C 89 % 1021,5 hPa 0,0 l/m 0 min 0 min 0,0 UV-I 0 W/m 0,0 km/h (0 Bft)
01.06.2014 05:10 9,8 C 8,9 C 89 % 1021,5 hPa 0,0 l/m 0 min 0 min 0,0 UV-I 0 W/m 0,0 km/h (0 Bft)
01.06.2014 05:12 9,9 C 8,9 C 89 % 1021,5 hPa 0,0 l/m 0 min 0 min 0,0 UV-I 0 W/m 0,0 km/h (0 Bft)
01.06.2014 05:14 9,9 C 8,9 C 89 % 1021,4 hPa 0,0 l/m 0 min 0 min 0,0 UV-I 0 W/m 0,0 km/h (0 Bft)
01.06.2014 05:16 9,9 C 8,9 C 89 % 1021,4 hPa 0,0 l/m 0 min 0 min 0,0 UV-I 0 W/m 0,0 km/h (0 Bft)
01.06.2014 05:18 10,0 C 8,9 C 89 % 1021,4 hPa 0,0 l/m 0 min 0 min 0,0 UV-I 0 W/m 0,0 km/h (0 Bft)
01.06.2014 05:20 10,0 C 8,9 C 89 % 1021,5 hPa 0,0 l/m 0 min 0 min 0,0 UV-I 0 W/m 0,0 km/h (0 Bft)
01.06.2014 05:22 10,0 C 8,9 C 89 % 1021,4 hPa 0,0 l/m 0 min 0 min 0,0 UV-I 0 W/m 0,0 km/h (0 Bft)
01.06.2014 05:24 9,9 C 8,9 C 89 % 1021,5 hPa 0,0 l/m 0 min 0 min 0,0 UV-I 0 W/m 0,0 km/h (0 Bft)
01.06.2014 05:26 9,9 C 8,9 C 89 % 1021,5 hPa 0,0 l/m 0 min 0 min 0,0 UV-I 5 W/m 0,0 km/h (0 Bft)
01.06.2014 05:28 9,9 C 8,9 C 89 % 1021,5 hPa 0,0 l/m 0 min 0 min 0,0 UV-I 5 W/m 0,0 km/h (0 Bft)
01.06.2014 05:30 9,9 C 8,9 C 89 % 1021,5 hPa 0,0 l/m 0 min 0 min 0,0 UV-I 5 W/m 0,0 km/h (0 Bft)
01.06.2014 05:32 9,8 C 8,9 C 89 % 1021,6 hPa 0,0 l/m 0 min 0 min 0,0 UV-I 5 W/m 0,0 km/h (0 Bft)
01.06.2014 05:34 9,8 C 8,9 C 89 % 1021,6 hPa 0,0 l/m 0 min 0 min 0,0 UV-I 5 W/m 0,0 km/h (0 Bft)
01.06.2014 05:36 9,8 C 8,9 C 89 % 1021,6 hPa 0,0 l/m 0 min 0 min 0,0 UV-I 7 W/m 0,0 km/h (0 Bft)
01.06.2014 05:38 9,9 C 8,9 C 89 % 1021,6 hPa 0,0 l/m 0 min 0 min 0,0 UV-I 7 W/m 0,0 km/h (0 Bft)
01.06.2014 05:40 9,9 C 8,9 C 89 % 1021,6 hPa 0,0 l/m 0 min 0 min 0,0 UV-I 7 W/m 5,1 km/h (1 Bft)
01.06.2014 05:42 9,9 C 8,9 C 89 % 1021,6 hPa 0,0 l/m 0 min 0 min 0,0 UV-I 7 W/m 0,0 km/h (0 Bft)
01.06.2014 05:44 10,0 C 9,4 C 89 % 1021,6 hPa 0,0 l/m 0 min 0 min 0,0 UV-I 7 W/m 2,6 km/h (1 Bft)
01.06.2014 05:46 10,1 C 9,4 C 89 % 1021,6 hPa 0,0 l/m 0 min 0 min 0,0 UV-I 9 W/m 0,0 km/h (0 Bft)
01.06.2014 05:48 10,1 C 9,4 C 89 % 1021,6 hPa 0,0 l/m 0 min 0 min 0,0 UV-I 9 W/m 0,0 km/h (0 Bft)
01.06.2014 05:50 10,1 C 9,4 C 89 % 1021,6 hPa 0,0 l/m 0 min 0 min 0,0 UV-I 11 W/m 0,0 km/h (0 Bft)
01.06.2014 05:52 10,1 C 9,4 C 89 % 1021,6 hPa 0,0 l/m 0 min 0 min 0,0 UV-I 11 W/m 0,0 km/h (0 Bft)
01.06.2014 05:54 10,2 C 9,4 C 89 % 1021,6 hPa 0,0 l/m 0 min 0 min 0,0 UV-I 12 W/m 0,0 km/h (0 Bft)
01.06.2014 05:56 10,2 C 9,4 C 89 % 1021,6 hPa 0,0 l/m 0 min 0 min 0,0 UV-I 14 W/m 0,0 km/h (0 Bft)
01.06.2014 05:58 10,2 C 9,4 C 89 % 1021,6 hPa 0,0 l/m 0 min 0 min 0,0 UV-I 16 W/m 0,0 km/h (0 Bft)
01.06.2014 06:00 10,2 C 9,4 C 89 % 1021,5 hPa 0,0 l/m 0 min 0 min 0,0 UV-I 19 W/m 0,0 km/h (0 Bft)
01.06.2014 06:02 10,2 C 9,4 C 89 % 1021,6 hPa 0,0 l/m 0 min 0 min 0,0 UV-I 21 W/m 0,0 km/h (0 Bft)
01.06.2014 06:06 10,2 C 9,4 C 89 % 1021,6 hPa 0,0 l/m 0 min 0 min 0,0 UV-I 25 W/m 0,0 km/h (0 Bft)
01.06.2014 06:08 10,2 C 9,4 C 89 % 1021,7 hPa 0,0 l/m 0 min 0 min 0,0 UV-I 26 W/m 0,0 km/h (0 Bft)
01.06.2014 06:10 10,2 C 9,4 C 89 % 1021,7 hPa 0,0 l/m 0 min 0 min 0,0 UV-I 30 W/m 0,0 km/h (0 Bft)
01.06.2014 06:12 10,2 C 9,4 C 89 % 1021,7 hPa 0,0 l/m 0 min 0 min 0,0 UV-I 32 W/m 0,0 km/h (0 Bft)
01.06.2014 06:14 10,3 C 9,4 C 89 % 1021,7 hPa 0,0 l/m 0 min 0 min 0,0 UV-I 35 W/m 0,0 km/h (0 Bft)
01.06.2014 06:16 10,3 C 9,4 C 89 % 1021,7 hPa 0,0 l/m 0 min 0 min 0,0 UV-I 37 W/m 0,0 km/h (0 Bft)
01.06.2014 06:18 10,3 C 9,4 C 89 % 1021,7 hPa 0,0 l/m 0 min 0 min 0,0 UV-I 39 W/m 0,0 km/h (0 Bft)
01.06.2014 06:20 10,2 C 9,4 C 89 % 1021,7 hPa 0,0 l/m 0 min 0 min 0,0 UV-I 40 W/m 0,0 km/h (0 Bft)
01.06.2014 06:22 10,2 C 9,4 C 89 % 1021,7 hPa 0,0 l/m 0 min 0 min 0,0 UV-I 40 W/m 0,0 km/h (0 Bft)
01.06.2014 06:24 10,2 C 9,4 C 89 % 1021,7 hPa 0,0 l/m 0 min 0 min 0,0 UV-I 40 W/m 0,0 km/h (0 Bft)
01.06.2014 06:26 10,2 C 9,4 C 89 % 1021,7 hPa 0,0 l/m 0 min 0 min 0,0 UV-I 42 W/m 0,0 km/h (0 Bft)
01.06.2014 06:28 10,3 C 9,4 C 89 % 1021,6 hPa 0,0 l/m 0 min 0 min 0,0 UV-I 42 W/m 0,0 km/h (0 Bft)
01.06.2014 06:30 10,3 C 9,4 C 89 % 1021,7 hPa 0,0 l/m 0 min 0 min 0,0 UV-I 42 W/m 0,0 km/h (0 Bft)
01.06.2014 06:32 10,3 C 9,4 C 89 % 1021,7 hPa 0,0 l/m 0 min 0 min 0,0 UV-I 42 W/m 0,0 km/h (0 Bft)
01.06.2014 06:34 10,3 C 9,4 C 89 % 1021,8 hPa 0,0 l/m 0 min 0 min 0,0 UV-I 42 W/m 0,0 km/h (0 Bft)
01.06.2014 06:36 10,3 C 9,4 C 89 % 1021,8 hPa 0,0 l/m 0 min 0 min 0,0 UV-I 46 W/m 0,0 km/h (0 Bft)
01.06.2014 06:38 10,3 C 9,4 C 89 % 1021,7 hPa 0,0 l/m 0 min 0 min 0,0 UV-I 46 W/m 0,0 km/h (0 Bft)
01.06.2014 06:40 10,3 C 9,4 C 89 % 1021,7 hPa 0,0 l/m 0 min 0 min 0,0 UV-I 49 W/m 0,0 km/h (0 Bft)
01.06.2014 06:42 10,3 C 9,4 C 89 % 1021,7 hPa 0,0 l/m 0 min 0 min 0,0 UV-I 51 W/m 0,0 km/h (0 Bft)
01.06.2014 06:44 10,3 C 9,4 C 89 % 1021,7 hPa 0,0 l/m 0 min 0 min 0,0 UV-I 53 W/m 0,0 km/h (0 Bft)
01.06.2014 06:46 10,3 C 9,4 C 89 % 1021,8 hPa 0,0 l/m 0 min 0 min 0,0 UV-I 56 W/m 0,0 km/h (0 Bft)
01.06.2014 06:48 10,3 C 9,4 C 89 % 1021,7 hPa 0,0 l/m 0 min 0 min 0,0 UV-I 58 W/m 0,0 km/h (0 Bft)
01.06.2014 06:50 10,3 C 9,4 C 89 % 1021,7 hPa 0,0 l/m 0 min 0 min 0,0 UV-I 58 W/m 0,0 km/h (0 Bft)
01.06.2014 06:52 10,4 C 9,4 C 89 % 1021,7 hPa 0,0 l/m 0 min 0 min 0,0 UV-I 60 W/m 0,0 km/h (0 Bft)
01.06.2014 06:54 10,4 C 9,4 C 89 % 1021,7 hPa 0,0 l/m 0 min 0 min 0,0 UV-I 62 W/m 0,0 km/h (0 Bft)
01.06.2014 06:56 10,4 C 9,4 C 89 % 1021,7 hPa 0,0 l/m 0 min 0 min 0,0 UV-I 63 W/m 0,0 km/h (0 Bft)
01.06.2014 06:58 10,4 C 9,4 C 89 % 1021,7 hPa 0,0 l/m 0 min 0 min 0,0 UV-I 65 W/m 0,0 km/h (0 Bft)
01.06.2014 07:00 10,5 C 9,4 C 89 % 1021,7 hPa 0,0 l/m 0 min 0 min 0,0 UV-I 65 W/m 0,0 km/h (0 Bft)
01.06.2014 07:02 10,5 C 9,4 C 89 % 1021,7 hPa 0,0 l/m 0 min 0 min 0,0 UV-I 67 W/m 0,0 km/h (0 Bft)
01.06.2014 07:06 10,6 C 9,4 C 88 % 1021,8 hPa 0,0 l/m 0 min 0 min 0,0 UV-I 70 W/m 2,6 km/h (1 Bft)
01.06.2014 07:08 10,7 C 10,0 C 88 % 1021,8 hPa 0,0 l/m 0 min 0 min 0,0 UV-I 72 W/m 0,0 km/h (0 Bft)
01.06.2014 07:10 10,7 C 10,0 C 88 % 1021,8 hPa 0,0 l/m 0 min 0 min 0,0 UV-I 76 W/m 0,0 km/h (0 Bft)
01.06.2014 07:12 10,7 C 10,0 C 88 % 1021,8 hPa 0,0 l/m 0 min 0 min 0,0 UV-I 77 W/m 0,0 km/h (0 Bft)
01.06.2014 07:14 10,8 C 10,0 C 88 % 1021,8 hPa 0,0 l/m 0 min 0 min 0,0 UV-I 79 W/m 0,0 km/h (0 Bft)
01.06.2014 07:16 10,8 C 10,0 C 88 % 1021,7 hPa 0,0 l/m 0 min 0 min 0,0 UV-I 83 W/m 7,7 km/h (2 Bft)
01.06.2014 07:18 10,8 C 10,0 C 87 % 1021,7 hPa 0,0 l/m 0 min 0 min 0,0 UV-I 86 W/m 0,0 km/h (0 Bft)
01.06.2014 07:20 10,9 C 10,0 C 87 % 1021,7 hPa 0,0 l/m 0 min 0 min 0,0 UV-I 88 W/m 2,6 km/h (1 Bft)
01.06.2014 07:22 10,9 C 10,0 C 87 % 1021,8 hPa 0,0 l/m 0 min 0 min 0,0 UV-I 90 W/m 0,0 km/h (0 Bft)
01.06.2014 07:24 11,0 C 10,0 C 87 % 1021,8 hPa 0,0 l/m 0 min 0 min 0,0 UV-I 91 W/m 0,0 km/h (0 Bft)
01.06.2014 07:26 11,1 C 10,0 C 87 % 1021,7 hPa 0,0 l/m 0 min 0 min 0,0 UV-I 93 W/m 0,0 km/h (0 Bft)
01.06.2014 07:28 11,1 C 10,0 C 87 % 1021,7 hPa 0,0 l/m 0 min 0 min 0,0 UV-I 98 W/m 2,6 km/h (1 Bft)
01.06.2014 07:30 11,2 C 10,0 C 87 % 1021,7 hPa 0,0 l/m 0 min 0 min 0,0 UV-I 102 W/m 0,0 km/h (0 Bft)
01.06.2014 07:32 11,2 C 10,6 C 86 % 1021,7 hPa 0,0 l/m 0 min 0 min 0,0 UV-I 105 W/m 2,6 km/h (1 Bft)
01.06.2014 07:34 11,2 C 10,6 C 86 % 1021,7 hPa 0,0 l/m 0 min 0 min 0,0 UV-I 104 W/m 0,0 km/h (0 Bft)
01.06.2014 07:36 11,3 C 10,6 C 86 % 1021,7 hPa 0,0 l/m 0 min 0 min 0,0 UV-I 105 W/m 0,0 km/h (0 Bft)
01.06.2014 07:38 11,3 C 10,6 C 86 % 1021,7 hPa 0,0 l/m 0 min 0 min 0,0 UV-I 109 W/m 0,0 km/h (0 Bft)
01.06.2014 07:40 11,4 C 10,6 C 86 % 1021,7 hPa 0,0 l/m 0 min 0 min 0,0 UV-I 111 W/m 2,6 km/h (1 Bft)
01.06.2014 07:42 11,4 C 10,6 C 86 % 1021,7 hPa 0,0 l/m 0 min 0 min 0,0 UV-I 109 W/m 0,0 km/h (0 Bft)
01.06.2014 07:44 11,4 C 10,6 C 85 % 1021,7 hPa 0,0 l/m 0 min 0 min 0,0 UV-I 109 W/m 0,0 km/h (0 Bft)
01.06.2014 07:46 11,5 C 10,6 C 85 % 1021,7 hPa 0,0 l/m 0 min 0 min 0,0 UV-I 111 W/m 2,6 km/h (1 Bft)
01.06.2014 07:48 11,6 C 10,6 C 85 % 1021,7 hPa 0,0 l/m 0 min 0 min 0,0 UV-I 111 W/m 0,0 km/h (0 Bft)
01.06.2014 07:50 11,6 C 10,6 C 85 % 1021,7 hPa 0,0 l/m 0 min 0 min 0,0 UV-I 135 W/m 0,0 km/h (0 Bft)
01.06.2014 07:52 11,7 C 10,6 C 85 % 1021,7 hPa 0,0 l/m 2 min 0 min 0,0 UV-I 221 W/m 5,1 km/h (1 Bft)
01.06.2014 07:54 11,7 C 11,1 C 85 % 1021,7 hPa 0,0 l/m 2 min 0 min 0,0 UV-I 230 W/m 7,7 km/h (2 Bft)
01.06.2014 07:56 11,8 C 11,1 C 84 % 1021,7 hPa 0,0 l/m 2 min 0 min 0,0 UV-I 257 W/m 0,0 km/h (0 Bft)
01.06.2014 07:58 11,8 C 11,1 C 84 % 1021,7 hPa 0,0 l/m 2 min 0 min 0,0 UV-I 274 W/m 5,1 km/h (1 Bft)
01.06.2014 08:00 12,0 C 11,1 C 84 % 1021,7 hPa 0,0 l/m 2 min 0 min 0,0 UV-I 288 W/m 0,0 km/h (0 Bft)
01.06.2014 08:02 12,1 C 11,7 C 83 % 1021,8 hPa 0,0 l/m 2 min 0 min 0,0 UV-I 246 W/m 5,1 km/h (1 Bft)
01.06.2014 08:06 12,2 C 11,7 C 82 % 1021,7 hPa 0,0 l/m 0 min 0 min 0,0 UV-I 202 W/m 2,6 km/h (1 Bft)
01.06.2014 08:08 12,2 C 11,7 C 82 % 1021,8 hPa 0,0 l/m 0 min 0 min 0,0 UV-I 179 W/m 2,6 km/h (1 Bft)
01.06.2014 08:10 12,3 C 11,7 C 82 % 1021,8 hPa 0,0 l/m 2 min 0 min 0,0 UV-I 279 W/m 5,1 km/h (1 Bft)
01.06.2014 08:12 12,3 C 11,7 C 82 % 1021,8 hPa 0,0 l/m 2 min 0 min 0,0 UV-I 309 W/m 10,3 km/h (2 Bft)
01.06.2014 08:14 12,4 C 11,7 C 81 % 1021,8 hPa 0,0 l/m 2 min 0 min 0,0 UV-I 320 W/m 7,7 km/h (2 Bft)
01.06.2014 08:16 12,4 C 11,7 C 80 % 1021,8 hPa 0,0 l/m 2 min 0 min 0,0 UV-I 315 W/m 5,1 km/h (1 Bft)
01.06.2014 08:18 12,6 C 11,7 C 80 % 1021,8 hPa 0,0 l/m 2 min 0 min 0,0 UV-I 332 W/m 7,7 km/h (2 Bft)
01.06.2014 08:20 12,7 C 12,2 C 80 % 1021,8 hPa 0,0 l/m 2 min 0 min 0,0 UV-I 359 W/m 0,0 km/h (0 Bft)
01.06.2014 08:22 12,8 C 12,2 C 80 % 1021,8 hPa 0,0 l/m 2 min 0 min 0,0 UV-I 388 W/m 10,3 km/h (2 Bft)
01.06.2014 08:24 12,9 C 12,2 C 79 % 1021,8 hPa 0,0 l/m 2 min 0 min 0,0 UV-I 394 W/m 12,9 km/h (3 Bft)
01.06.2014 08:26 13,0 C 12,8 C 79 % 1021,8 hPa 0,0 l/m 2 min 0 min 0,0 UV-I 418 W/m 7,7 km/h (2 Bft)
01.06.2014 08:28 13,1 C 12,8 C 79 % 1021,7 hPa 0,0 l/m 2 min 0 min 0,0 UV-I 399 W/m 7,7 km/h (2 Bft)
01.06.2014 08:30 13,3 C 12,8 C 79 % 1021,8 hPa 0,0 l/m 2 min 0 min 0,0 UV-I 390 W/m 10,3 km/h (2 Bft)
01.06.2014 08:32 13,4 C 12,8 C 79 % 1021,8 hPa 0,0 l/m 2 min 0 min 0,0 UV-I 381 W/m 12,9 km/h (3 Bft)
01.06.2014 08:34 13,3 C 12,8 C 77 % 1021,8 hPa 0,0 l/m 2 min 0 min 0,0 UV-I 378 W/m 10,3 km/h (2 Bft)
01.06.2014 08:36 13,3 C 12,8 C 77 % 1021,8 hPa 0,0 l/m 2 min 0 min 0,0 UV-I 380 W/m 18,0 km/h (3 Bft)
01.06.2014 08:38 13,2 C 12,8 C 77 % 1021,8 hPa 0,0 l/m 2 min 0 min 0,0 UV-I 346 W/m 12,9 km/h (3 Bft)
01.06.2014 08:40 13,2 C 12,8 C 77 % 1021,8 hPa 0,0 l/m 0 min 0 min 0,0 UV-I 179 W/m 10,3 km/h (2 Bft)
01.06.2014 08:42 13,2 C 12,8 C 78 % 1021,8 hPa 0,0 l/m 0 min 0 min 0,0 UV-I 197 W/m 7,7 km/h (2 Bft)
01.06.2014 08:44 13,2 C 12,8 C 77 % 1021,7 hPa 0,0 l/m 0 min 0 min 0,0 UV-I 204 W/m 12,9 km/h (3 Bft)
01.06.2014 08:46 13,2 C 12,8 C 77 % 1021,8 hPa 0,0 l/m 2 min 0 min 0,0 UV-I 272 W/m 10,3 km/h (2 Bft)
01.06.2014 08:48 13,2 C 12,8 C 78 % 1021,8 hPa 0,0 l/m 2 min 0 min 0,0 UV-I 461 W/m 12,9 km/h (3 Bft)
01.06.2014 08:50 13,3 C 12,8 C 78 % 1021,8 hPa 0,0 l/m 2 min 0 min 0,0 UV-I 301 W/m 10,3 km/h (2 Bft)
01.06.2014 08:52 13,4 C 12,8 C 78 % 1021,8 hPa 0,0 l/m 0 min 0 min 0,0 UV-I 232 W/m 10,3 km/h (2 Bft)
01.06.2014 08:54 13,4 C 12,8 C 78 % 1021,8 hPa 0,0 l/m 0 min 0 min 0,0 UV-I 200 W/m 10,3 km/h (2 Bft)
01.06.2014 08:56 13,4 C 12,8 C 78 % 1021,8 hPa 0,0 l/m 0 min 0 min 0,0 UV-I 193 W/m 7,7 km/h (2 Bft)
01.06.2014 08:58 13,5 C 12,8 C 79 % 1021,8 hPa 0,0 l/m 0 min 0 min 0,0 UV-I 209 W/m 0,0 km/h (0 Bft)
01.06.2014 09:00 13,5 C 12,8 C 78 % 1021,8 hPa 0,0 l/m 2 min 0 min 0,0 UV-I 339 W/m 10,3 km/h (2 Bft)
01.06.2014 09:02 13,5 C 12,8 C 78 % 1021,8 hPa 0,0 l/m 0 min 0 min 0,0 UV-I 230 W/m 10,3 km/h (2 Bft)
01.06.2014 09:06 13,5 C 12,8 C 78 % 1021,8 hPa 0,0 l/m 0 min 0 min 0,0 UV-I 241 W/m 12,9 km/h (3 Bft)
01.06.2014 09:08 13,5 C 12,8 C 78 % 1021,8 hPa 0,0 l/m 2 min 0 min 0,5 UV-I 452 W/m 7,7 km/h (2 Bft)
01.06.2014 09:10 13,5 C 12,8 C 78 % 1021,8 hPa 0,0 l/m 2 min 0 min 0,6 UV-I 471 W/m 15,4 km/h (3 Bft)
01.06.2014 09:12 13,5 C 12,8 C 78 % 1021,8 hPa 0,0 l/m 2 min 0 min 0,6 UV-I 497 W/m 12,9 km/h (3 Bft)
01.06.2014 09:14 13,6 C 12,8 C 77 % 1021,8 hPa 0,0 l/m 2 min 0 min 0,6 UV-I 336 W/m 18,0 km/h (3 Bft)
01.06.2014 09:16 13,6 C 13,3 C 77 % 1021,8 hPa 0,0 l/m 2 min 0 min 0,6 UV-I 443 W/m 15,4 km/h (3 Bft)
01.06.2014 09:18 13,7 C 13,3 C 77 % 1021,8 hPa 0,0 l/m 2 min 0 min 0,7 UV-I 378 W/m 18,0 km/h (3 Bft)
01.06.2014 09:20 13,7 C 13,3 C 77 % 1021,9 hPa 0,0 l/m 2 min 0 min 0,6 UV-I 566 W/m 18,0 km/h (3 Bft)
01.06.2014 09:22 13,8 C 13,3 C 77 % 1021,8 hPa 0,0 l/m 2 min 0 min 0,8 UV-I 396 W/m 20,6 km/h (4 Bft)
01.06.2014 09:24 13,8 C 13,3 C 76 % 1021,9 hPa 0,0 l/m 2 min 0 min 0,6 UV-I 383 W/m 23,2 km/h (4 Bft)
01.06.2014 09:26 13,9 C 13,3 C 77 % 1021,9 hPa 0,0 l/m 2 min 0 min 0,5 UV-I 327 W/m 18,0 km/h (3 Bft)
01.06.2014 09:28 13,9 C 13,3 C 76 % 1021,9 hPa 0,0 l/m 0 min 0 min 0,5 UV-I 308 W/m 18,0 km/h (3 Bft)
01.06.2014 09:30 13,8 C 13,3 C 76 % 1021,9 hPa 0,0 l/m 0 min 0 min 0,5 UV-I 295 W/m 18,0 km/h (3 Bft)
01.06.2014 09:32 13,8 C 13,3 C 77 % 1021,9 hPa 0,0 l/m 0 min 0 min 0,5 UV-I 278 W/m 12,9 km/h (3 Bft)
01.06.2014 09:34 13,8 C 13,3 C 77 % 1021,9 hPa 0,0 l/m 0 min 0 min 0,0 UV-I 265 W/m 7,7 km/h (2 Bft)
01.06.2014 09:36 13,8 C 13,3 C 77 % 1021,9 hPa 0,0 l/m 0 min 0 min 0,5 UV-I 257 W/m 15,4 km/h (3 Bft)
01.06.2014 09:38 13,8 C 13,3 C 77 % 1021,9 hPa 0,0 l/m 0 min 0 min 0,5 UV-I 267 W/m 20,6 km/h (4 Bft)
01.06.2014 09:40 13,7 C 13,3 C 77 % 1021,9 hPa 0,0 l/m 0 min 0 min 0,6 UV-I 302 W/m 12,9 km/h (3 Bft)
01.06.2014 09:42 13,7 C 13,3 C 77 % 1021,9 hPa 0,0 l/m 2 min 0 min 0,7 UV-I 369 W/m 10,3 km/h (2 Bft)
01.06.2014 09:44 13,8 C 13,9 C 78 % 1021,9 hPa 0,0 l/m 2 min 0 min 0,8 UV-I 446 W/m 12,9 km/h (3 Bft)
01.06.2014 09:46 13,8 C 13,9 C 78 % 1021,9 hPa 0,0 l/m 2 min 0 min 0,8 UV-I 367 W/m 7,7 km/h (2 Bft)
01.06.2014 09:48 14,0 C 13,9 C 77 % 1021,9 hPa 0,0 l/m 2 min 0 min 0,8 UV-I 369 W/m 15,4 km/h (3 Bft)
01.06.2014 09:50 14,2 C 14,4 C 77 % 1021,8 hPa 0,0 l/m 2 min 0 min 0,9 UV-I 496 W/m 15,4 km/h (3 Bft)
01.06.2014 09:52 14,2 C 14,4 C 76 % 1021,9 hPa 0,0 l/m 2 min 0 min 1,1 UV-I 431 W/m 23,2 km/h (4 Bft)
01.06.2014 09:54 14,2 C 14,4 C 76 % 1021,9 hPa 0,0 l/m 2 min 0 min 0,8 UV-I 378 W/m 12,9 km/h (3 Bft)
01.06.2014 09:56 14,2 C 13,9 C 75 % 1021,9 hPa 0,0 l/m 0 min 0 min 0,6 UV-I 325 W/m 18,0 km/h (3 Bft)
01.06.2014 09:58 14,2 C 13,9 C 76 % 1021,9 hPa 0,0 l/m 0 min 0 min 0,6 UV-I 292 W/m 15,4 km/h (3 Bft)
01.06.2014 10:00 14,2 C 13,9 C 76 % 1021,8 hPa 0,0 l/m 0 min 0 min 0,6 UV-I 274 W/m 12,9 km/h (3 Bft)
01.06.2014 10:02 14,2 C 13,9 C 76 % 1021,8 hPa 0,0 l/m 0 min 0 min 0,8 UV-I 290 W/m 12,9 km/h (3 Bft)
01.06.2014 10:06 14,2 C 13,9 C 76 % 1021,8 hPa 0,0 l/m 2 min 0 min 1,3 UV-I 371 W/m 12,9 km/h (3 Bft)
01.06.2014 10:08 14,2 C 14,4 C 77 % 1021,8 hPa 0,0 l/m 2 min 0 min 1,3 UV-I 475 W/m 15,4 km/h (3 Bft)
01.06.2014 10:10 14,2 C 15,0 C 77 % 1021,8 hPa 0,0 l/m 2 min 0 min 1,4 UV-I 613 W/m 10,3 km/h (2 Bft)
01.06.2014 10:12 14,3 C 15,0 C 76 % 1021,8 hPa 0,0 l/m 2 min 0 min 1,3 UV-I 410 W/m 12,9 km/h (3 Bft)
01.06.2014 10:14 14,4 C 15,0 C 75 % 1021,7 hPa 0,0 l/m 2 min 0 min 1,3 UV-I 427 W/m 12,9 km/h (3 Bft)
01.06.2014 10:16 14,5 C 15,0 C 76 % 1021,7 hPa 0,0 l/m 2 min 0 min 1,7 UV-I 613 W/m 10,3 km/h (2 Bft)
01.06.2014 10:18 14,7 C 16,1 C 76 % 1021,7 hPa 0,0 l/m 2 min 0 min 1,9 UV-I 687 W/m 12,9 km/h (3 Bft)
01.06.2014 10:20 15,1 C 16,7 C 74 % 1021,7 hPa 0,0 l/m 2 min 0 min 1,7 UV-I 575 W/m 12,9 km/h (3 Bft)
01.06.2014 10:22 15,1 C 16,1 C 72 % 1021,7 hPa 0,0 l/m 2 min 0 min 1,7 UV-I 501 W/m 12,9 km/h (3 Bft)
01.06.2014 10:24 15,1 C 16,1 C 73 % 1021,7 hPa 0,0 l/m 2 min 0 min 1,5 UV-I 446 W/m 5,1 km/h (1 Bft)
01.06.2014 10:26 15,2 C 15,6 C 73 % 1021,7 hPa 0,0 l/m 0 min 0 min 1,3 UV-I 374 W/m 15,4 km/h (3 Bft)
01.06.2014 10:28 15,1 C 15,6 C 72 % 1021,7 hPa 0,0 l/m 0 min 0 min 1,3 UV-I 366 W/m 12,9 km/h (3 Bft)
01.06.2014 10:30 14,9 C 15,0 C 71 % 1021,7 hPa 0,0 l/m 0 min 0 min 1,3 UV-I 367 W/m 20,6 km/h (4 Bft)
01.06.2014 10:32 14,8 C 15,0 C 72 % 1021,7 hPa 0,0 l/m 0 min 0 min 1,3 UV-I 367 W/m 12,9 km/h (3 Bft)
01.06.2014 10:34 14,7 C 15,0 C 74 % 1021,7 hPa 0,0 l/m 2 min 0 min 1,3 UV-I 418 W/m 10,3 km/h (2 Bft)
01.06.2014 10:36 14,7 C 15,0 C 74 % 1021,7 hPa 0,0 l/m 2 min 0 min 1,3 UV-I 413 W/m 15,4 km/h (3 Bft)
01.06.2014 10:38 14,8 C 15,6 C 73 % 1021,6 hPa 0,0 l/m 2 min 0 min 1,5 UV-I 485 W/m 0,0 km/h (0 Bft)
01.06.2014 10:40 15,0 C 15,6 C 74 % 1021,7 hPa 0,0 l/m 2 min 0 min 1,5 UV-I 406 W/m 2,6 km/h (1 Bft)
01.06.2014 10:42 15,2 C 16,1 C 73 % 1021,6 hPa 0,0 l/m 2 min 0 min 1,3 UV-I 394 W/m 15,4 km/h (3 Bft)
01.06.2014 10:44 15,0 C 15,6 C 72 % 1021,6 hPa 0,0 l/m 2 min 0 min 1,4 UV-I 445 W/m 15,4 km/h (3 Bft)
01.06.2014 10:46 14,9 C 15,6 C 72 % 1021,7 hPa 0,0 l/m 2 min 0 min 1,3 UV-I 417 W/m 5,1 km/h (1 Bft)
01.06.2014 10:48 14,9 C 15,6 C 72 % 1021,7 hPa 0,0 l/m 0 min 0 min 1,2 UV-I 378 W/m 18,0 km/h (3 Bft)
01.06.2014 10:50 14,9 C 15,6 C 73 % 1021,7 hPa 0,0 l/m 0 min 0 min 1,1 UV-I 336 W/m 10,3 km/h (2 Bft)
01.06.2014 10:52 14,9 C 15,0 C 72 % 1021,7 hPa 0,0 l/m 0 min 0 min 0,9 UV-I 230 W/m 15,4 km/h (3 Bft)
01.06.2014 10:54 14,8 C 14,4 C 71 % 1021,7 hPa 0,0 l/m 0 min 0 min 0,9 UV-I 214 W/m 12,9 km/h (3 Bft)
01.06.2014 10:56 14,8 C 14,4 C 70 % 1021,6 hPa 0,0 l/m 0 min 0 min 1,1 UV-I 227 W/m 15,4 km/h (3 Bft)
01.06.2014 10:58 14,7 C 14,4 C 70 % 1021,6 hPa 0,0 l/m 0 min 0 min 1,2 UV-I 258 W/m 12,9 km/h (3 Bft)
01.06.2014 11:00 14,7 C 14,4 C 70 % 1021,7 hPa 0,0 l/m 0 min 0 min 1,4 UV-I 269 W/m 12,9 km/h (3 Bft)
01.06.2014 11:02 14,7 C 15,0 C 70 % 1021,6 hPa 0,0 l/m 0 min 0 min 1,7 UV-I 332 W/m 5,1 km/h (1 Bft)
01.06.2014 11:06 14,8 C 15,6 C 69 % 1021,6 hPa 0,0 l/m 2 min 0 min 2,0 UV-I 555 W/m 18,0 km/h (3 Bft)
01.06.2014 11:08 15,0 C 17,2 C 70 % 1021,6 hPa 0,0 l/m 2 min 0 min 2,9 UV-I 854 W/m 0,0 km/h (0 Bft)
01.06.2014 11:10 15,3 C 18,3 C 70 % 1021,6 hPa 0,0 l/m 2 min 0 min 2,9 UV-I 872 W/m 10,3 km/h (2 Bft)
01.06.2014 11:12 16,0 C 19,4 C 72 % 1021,6 hPa 0,0 l/m 2 min 0 min 2,5 UV-I 872 W/m 0,0 km/h (0 Bft)
01.06.2014 11:14 16,3 C 19,4 C 66 % 1021,6 hPa 0,0 l/m 2 min 0 min 2,5 UV-I 788 W/m 0,0 km/h (0 Bft)
01.06.2014 11:16 16,4 C 18,9 C 65 % 1021,5 hPa 0,0 l/m 2 min 0 min 1,6 UV-I 788 W/m 5,1 km/h (1 Bft)
01.06.2014 11:18 16,3 C 18,3 C 65 % 1021,5 hPa 0,0 l/m 0 min 0 min 1,9 UV-I 401 W/m 2,6 km/h (1 Bft)
01.06.2014 11:20 16,1 C 17,8 C 66 % 1021,6 hPa 0,0 l/m 2 min 0 min 2,4 UV-I 445 W/m 10,3 km/h (2 Bft)
01.06.2014 11:22 15,9 C 17,8 C 67 % 1021,6 hPa 0,0 l/m 2 min 0 min 3,2 UV-I 756 W/m 10,3 km/h (2 Bft)
01.06.2014 11:24 15,9 C 18,3 C 67 % 1021,5 hPa 0,0 l/m 2 min 0 min 2,2 UV-I 872 W/m 10,3 km/h (2 Bft)
01.06.2014 11:26 16,1 C 18,3 C 67 % 1021,5 hPa 0,0 l/m 2 min 0 min 2,5 UV-I 529 W/m 10,3 km/h (2 Bft)
01.06.2014 11:28 16,1 C 17,8 C 65 % 1021,5 hPa 0,0 l/m 2 min 0 min 3,2 UV-I 851 W/m 10,3 km/h (2 Bft)
01.06.2014 11:30 16,2 C 17,8 C 66 % 1021,5 hPa 0,0 l/m 2 min 0 min 3,2 UV-I 833 W/m 10,3 km/h (2 Bft)
01.06.2014 11:32 16,4 C 18,3 C 66 % 1021,5 hPa 0,0 l/m 2 min 0 min 3,1 UV-I 896 W/m 18,0 km/h (3 Bft)
01.06.2014 11:34 16,6 C 18,9 C 66 % 1021,5 hPa 0,0 l/m 2 min 0 min 3,0 UV-I 907 W/m 10,3 km/h (2 Bft)
01.06.2014 11:36 16,8 C 20,0 C 65 % 1021,5 hPa 0,0 l/m 2 min 0 min 3,1 UV-I 962 W/m 5,1 km/h (1 Bft)
01.06.2014 11:38 16,7 C 19,4 C 64 % 1021,5 hPa 0,0 l/m 2 min 0 min 2,0 UV-I 921 W/m 15,4 km/h (3 Bft)
01.06.2014 11:40 16,4 C 18,3 C 62 % 1021,5 hPa 0,0 l/m 2 min 0 min 2,6 UV-I 582 W/m 12,9 km/h (3 Bft)
01.06.2014 11:42 16,2 C 17,8 C 63 % 1021,5 hPa 0,0 l/m 2 min 0 min 1,7 UV-I 529 W/m 12,9 km/h (3 Bft)
01.06.2014 11:44 16,0 C 16,7 C 62 % 1021,5 hPa 0,0 l/m 0 min 0 min 1,9 UV-I 392 W/m 12,9 km/h (3 Bft)
01.06.2014 11:46 15,8 C 16,7 C 62 % 1021,5 hPa 0,0 l/m 2 min 0 min 3,4 UV-I 452 W/m 10,3 km/h (2 Bft)
01.06.2014 11:48 16,1 C 18,9 C 65 % 1021,5 hPa 0,0 l/m 2 min 0 min 3,2 UV-I 907 W/m 2,6 km/h (1 Bft)
01.06.2014 11:50 16,6 C 19,4 C 65 % 1021,5 hPa 0,0 l/m 2 min 0 min 2,0 UV-I 446 W/m 2,6 km/h (1 Bft)
01.06.2014 11:52 16,7 C 18,9 C 64 % 1021,5 hPa 0,0 l/m 2 min 0 min 2,2 UV-I 466 W/m 2,6 km/h (1 Bft)
01.06.2014 11:54 16,7 C 18,9 C 63 % 1021,5 hPa 0,0 l/m 2 min 0 min 2,6 UV-I 466 W/m 2,6 km/h (1 Bft)
01.06.2014 11:56 16,5 C 18,3 C 62 % 1021,5 hPa 0,0 l/m 2 min 0 min 2,6 UV-I 561 W/m 10,3 km/h (2 Bft)
01.06.2014 11:58 16,4 C 17,8 C 62 % 1021,5 hPa 0,0 l/m 2 min 0 min 2,6 UV-I 499 W/m 10,3 km/h (2 Bft)
01.06.2014 12:00 16,3 C 17,8 C 61 % 1021,5 hPa 0,0 l/m 0 min 0 min 2,3 UV-I 446 W/m 15,4 km/h (3 Bft)
01.06.2014 12:02 16,1 C 17,2 C 61 % 1021,5 hPa 0,0 l/m 2 min 0 min 2,7 UV-I 452 W/m 7,7 km/h (2 Bft)
01.06.2014 12:06 16,5 C 18,9 C 61 % 1021,4 hPa 0,0 l/m 2 min 0 min 3,1 UV-I 497 W/m 12,9 km/h (3 Bft)
01.06.2014 12:08 16,5 C 18,9 C 61 % 1021,4 hPa 0,0 l/m 2 min 0 min 3,8 UV-I 877 W/m 12,9 km/h (3 Bft)
01.06.2014 12:10 16,5 C 19,4 C 60 % 1021,4 hPa 0,0 l/m 2 min 0 min 3,6 UV-I 844 W/m 10,3 km/h (2 Bft)
01.06.2014 12:12 16,6 C 20,0 C 61 % 1021,4 hPa 0,0 l/m 2 min 0 min 3,4 UV-I 826 W/m 12,9 km/h (3 Bft)
01.06.2014 12:14 16,7 C 20,0 C 60 % 1021,4 hPa 0,0 l/m 2 min 0 min 3,7 UV-I 809 W/m 12,9 km/h (3 Bft)
01.06.2014 12:16 16,7 C 20,6 C 59 % 1021,4 hPa 0,0 l/m 2 min 0 min 3,8 UV-I 821 W/m 0,0 km/h (0 Bft)
01.06.2014 12:18 16,8 C 20,6 C 60 % 1021,4 hPa 0,0 l/m 2 min 0 min 3,3 UV-I 816 W/m 12,9 km/h (3 Bft)
01.06.2014 12:20 16,8 C 21,1 C 61 % 1021,4 hPa 0,0 l/m 2 min 0 min 3,7 UV-I 842 W/m 10,3 km/h (2 Bft)
01.06.2014 12:22 17,1 C 22,2 C 63 % 1021,4 hPa 0,0 l/m 2 min 0 min 3,8 UV-I 810 W/m 0,0 km/h (0 Bft)
01.06.2014 12:24 17,2 C 22,2 C 60 % 1021,4 hPa 0,0 l/m 2 min 0 min 3,1 UV-I 847 W/m 2,6 km/h (1 Bft)
01.06.2014 12:26 17,4 C 22,8 C 62 % 1021,3 hPa 0,0 l/m 2 min 0 min 4,0 UV-I 847 W/m 7,7 km/h (2 Bft)
01.06.2014 12:28 17,6 C 22,8 C 60 % 1021,4 hPa 0,0 l/m 2 min 0 min 3,7 UV-I 925 W/m 7,7 km/h (2 Bft)
01.06.2014 12:30 17,5 C 21,1 C 57 % 1021,4 hPa 0,0 l/m 2 min 0 min 3,5 UV-I 842 W/m 12,9 km/h (3 Bft)
01.06.2014 12:32 17,1 C 20,6 C 58 % 1021,4 hPa 0,0 l/m 2 min 0 min 4,0 UV-I 805 W/m 7,7 km/h (2 Bft)
01.06.2014 12:34 16,9 C 20,0 C 58 % 1021,4 hPa 0,0 l/m 2 min 0 min 2,4 UV-I 805 W/m 0,0 km/h (0 Bft)
01.06.2014 12:36 16,7 C 20,0 C 62 % 1021,4 hPa 0,0 l/m 2 min 0 min 2,4 UV-I 805 W/m 2,6 km/h (1 Bft)
01.06.2014 12:38 16,8 C 20,6 C 62 % 1021,3 hPa 0,0 l/m 2 min 0 min 2,9 UV-I 840 W/m 7,7 km/h (2 Bft)
01.06.2014 12:40 17,0 C 19,4 C 62 % 1021,4 hPa 0,0 l/m 0 min 0 min 2,2 UV-I 313 W/m 10,3 km/h (2 Bft)
01.06.2014 12:42 16,8 C 18,3 C 60 % 1021,4 hPa 0,0 l/m 0 min 0 min 2,1 UV-I 287 W/m 12,9 km/h (3 Bft)
01.06.2014 12:44 16,6 C 18,9 C 61 % 1021,4 hPa 0,0 l/m 2 min 0 min 3,7 UV-I 896 W/m 5,1 km/h (1 Bft)
01.06.2014 12:46 16,6 C 19,4 C 61 % 1021,3 hPa 0,0 l/m 2 min 0 min 3,9 UV-I 923 W/m 7,7 km/h (2 Bft)
01.06.2014 12:48 16,9 C 20,0 C 65 % 1021,3 hPa 0,0 l/m 2 min 0 min 3,9 UV-I 893 W/m 2,6 km/h (1 Bft)
01.06.2014 12:50 17,6 C 20,6 C 63 % 1021,4 hPa 0,0 l/m 2 min 0 min 3,8 UV-I 902 W/m 2,6 km/h (1 Bft)
01.06.2014 12:52 17,9 C 20,6 C 64 % 1021,4 hPa 0,0 l/m 2 min 0 min 3,8 UV-I 921 W/m 7,7 km/h (2 Bft)
01.06.2014 12:54 18,4 C 21,1 C 60 % 1021,4 hPa 0,0 l/m 2 min 0 min 3,4 UV-I 918 W/m 7,7 km/h (2 Bft)
01.06.2014 12:56 18,5 C 21,1 C 61 % 1021,3 hPa 0,0 l/m 2 min 0 min 3,2 UV-I 942 W/m 7,7 km/h (2 Bft)
01.06.2014 12:58 18,6 C 21,1 C 61 % 1021,3 hPa 0,0 l/m 2 min 0 min 2,9 UV-I 970 W/m 18,0 km/h (3 Bft)
01.06.2014 13:00 18,8 C 21,7 C 60 % 1021,3 hPa 0,0 l/m 2 min 0 min 2,7 UV-I 1018 W/m 2,6 km/h (1 Bft)
01.06.2014 13:02 18,9 C 21,1 C 55 % 1021,3 hPa 0,0 l/m 2 min 0 min 2,3 UV-I 1037 W/m 10,3 km/h (2 Bft)
01.06.2014 13:06 18,2 C 20,6 C 55 % 1021,3 hPa 0,0 l/m 2 min 0 min 1,8 UV-I 983 W/m 15,4 km/h (3 Bft)
01.06.2014 13:08 17,8 C 19,4 C 56 % 1021,3 hPa 0,0 l/m 0 min 0 min 1,1 UV-I 316 W/m 12,9 km/h (3 Bft)
01.06.2014 13:10 17,7 C 18,3 C 61 % 1021,3 hPa 0,0 l/m 0 min 0 min 0,6 UV-I 225 W/m 7,7 km/h (2 Bft)
01.06.2014 13:12 17,4 C 17,8 C 61 % 1021,3 hPa 0,0 l/m 0 min 0 min 0,0 UV-I 171 W/m 15,4 km/h (3 Bft)
01.06.2014 13:14 17,3 C 17,2 C 63 % 1021,3 hPa 0,0 l/m 0 min 0 min 0,0 UV-I 148 W/m 12,9 km/h (3 Bft)
01.06.2014 13:16 17,1 C 16,7 C 63 % 1021,3 hPa 0,0 l/m 0 min 0 min 0,0 UV-I 135 W/m 12,9 km/h (3 Bft)
01.06.2014 13:18 16,9 C 16,7 C 64 % 1021,3 hPa 0,0 l/m 0 min 0 min 0,0 UV-I 130 W/m 12,9 km/h (3 Bft)
01.06.2014 13:20 16,8 C 16,7 C 66 % 1021,3 hPa 0,0 l/m 0 min 0 min 0,0 UV-I 130 W/m 0,0 km/h (0 Bft)
01.06.2014 13:22 16,7 C 16,1 C 65 % 1021,3 hPa 0,0 l/m 0 min 0 min 0,0 UV-I 132 W/m 12,9 km/h (3 Bft)
01.06.2014 13:24 16,6 C 16,1 C 65 % 1021,4 hPa 0,0 l/m 0 min 0 min 0,0 UV-I 139 W/m 10,3 km/h (2 Bft)
01.06.2014 13:26 16,4 C 16,1 C 64 % 1021,4 hPa 0,0 l/m 0 min 0 min 0,0 UV-I 146 W/m 12,9 km/h (3 Bft)
01.06.2014 13:28 16,3 C 16,1 C 63 % 1021,4 hPa 0,0 l/m 0 min 0 min 0,0 UV-I 153 W/m 15,4 km/h (3 Bft)
01.06.2014 13:30 16,2 C 15,6 C 64 % 1021,4 hPa 0,0 l/m 0 min 0 min 0,0 UV-I 169 W/m 10,3 km/h (2 Bft)
01.06.2014 13:32 16,1 C 16,1 C 64 % 1021,3 hPa 0,0 l/m 0 min 0 min 0,0 UV-I 186 W/m 7,7 km/h (2 Bft)
01.06.2014 13:34 16,1 C 15,6 C 64 % 1021,3 hPa 0,0 l/m 0 min 0 min 0,5 UV-I 200 W/m 12,9 km/h (3 Bft)
01.06.2014 13:36 16,1 C 16,1 C 64 % 1021,3 hPa 0,0 l/m 0 min 0 min 0,5 UV-I 214 W/m 15,4 km/h (3 Bft)
01.06.2014 13:38 16,1 C 16,1 C 64 % 1021,3 hPa 0,0 l/m 0 min 0 min 0,6 UV-I 227 W/m 10,3 km/h (2 Bft)
01.06.2014 13:40 16,2 C 16,1 C 63 % 1021,3 hPa 0,0 l/m 0 min 0 min 0,7 UV-I 232 W/m 2,6 km/h (1 Bft)
01.06.2014 13:42 16,3 C 16,7 C 62 % 1021,3 hPa 0,0 l/m 0 min 0 min 0,8 UV-I 253 W/m 10,3 km/h (2 Bft)
01.06.2014 13:44 16,3 C 16,7 C 62 % 1021,3 hPa 0,0 l/m 0 min 0 min 0,9 UV-I 260 W/m 10,3 km/h (2 Bft)
01.06.2014 13:46 16,4 C 16,7 C 63 % 1021,3 hPa 0,0 l/m 0 min 0 min 1,0 UV-I 267 W/m 0,0 km/h (0 Bft)
01.06.2014 13:48 16,4 C 16,7 C 63 % 1021,3 hPa 0,0 l/m 0 min 0 min 1,0 UV-I 278 W/m 2,6 km/h (1 Bft)
01.06.2014 13:50 16,5 C 16,7 C 63 % 1021,3 hPa 0,0 l/m 0 min 0 min 1,1 UV-I 285 W/m 0,0 km/h (0 Bft)
01.06.2014 13:52 16,4 C 16,7 C 63 % 1021,3 hPa 0,0 l/m 0 min 0 min 1,2 UV-I 294 W/m 10,3 km/h (2 Bft)
01.06.2014 13:54 16,5 C 17,2 C 64 % 1021,3 hPa 0,0 l/m 0 min 0 min 1,3 UV-I 309 W/m 0,0 km/h (0 Bft)
01.06.2014 13:56 16,8 C 17,2 C 65 % 1021,3 hPa 0,0 l/m 0 min 0 min 1,3 UV-I 313 W/m 2,6 km/h (1 Bft)
01.06.2014 13:58 16,8 C 17,2 C 63 % 1021,3 hPa 0,0 l/m 0 min 0 min 1,3 UV-I 315 W/m 10,3 km/h (2 Bft)
01.06.2014 14:00 16,6 C 17,2 C 62 % 1021,3 hPa 0,0 l/m 0 min 0 min 1,3 UV-I 318 W/m 10,3 km/h (2 Bft)
01.06.2014 14:02 16,7 C 17,2 C 65 % 1021,3 hPa 0,0 l/m 0 min 0 min 1,4 UV-I 320 W/m 0,0 km/h (0 Bft)
01.06.2014 14:06 16,6 C 17,2 C 61 % 1021,3 hPa 0,0 l/m 0 min 0 min 1,4 UV-I 332 W/m 5,1 km/h (1 Bft)
01.06.2014 14:08 16,7 C 17,2 C 64 % 1021,3 hPa 0,0 l/m 0 min 0 min 1,5 UV-I 336 W/m 10,3 km/h (2 Bft)
01.06.2014 14:10 16,6 C 17,2 C 62 % 1021,3 hPa 0,0 l/m 0 min 0 min 1,5 UV-I 343 W/m 10,3 km/h (2 Bft)
01.06.2014 14:12 16,5 C 17,2 C 62 % 1021,2 hPa 0,0 l/m 0 min 0 min 1,6 UV-I 352 W/m 12,9 km/h (3 Bft)
01.06.2014 14:14 16,6 C 17,2 C 62 % 1021,3 hPa 0,0 l/m 0 min 0 min 1,6 UV-I 355 W/m 10,3 km/h (2 Bft)
01.06.2014 14:16 16,6 C 17,2 C 61 % 1021,3 hPa 0,0 l/m 0 min 0 min 1,7 UV-I 359 W/m 10,3 km/h (2 Bft)
01.06.2014 14:18 16,6 C 17,2 C 62 % 1021,2 hPa 0,0 l/m 0 min 0 min 1,7 UV-I 357 W/m 0,0 km/h (0 Bft)
01.06.2014 14:20 16,7 C 17,8 C 63 % 1021,2 hPa 0,0 l/m 0 min 0 min 1,7 UV-I 360 W/m 0,0 km/h (0 Bft)
01.06.2014 14:22 16,9 C 17,8 C 63 % 1021,2 hPa 0,0 l/m 0 min 0 min 1,8 UV-I 367 W/m 10,3 km/h (2 Bft)
01.06.2014 14:24 16,9 C 17,8 C 61 % 1021,2 hPa 0,0 l/m 0 min 0 min 1,8 UV-I 369 W/m 12,9 km/h (3 Bft)
01.06.2014 14:26 16,9 C 17,8 C 60 % 1021,2 hPa 0,0 l/m 0 min 0 min 1,9 UV-I 373 W/m 2,6 km/h (1 Bft)
01.06.2014 14:28 16,9 C 17,8 C 62 % 1021,2 hPa 0,0 l/m 0 min 0 min 1,9 UV-I 383 W/m 2,6 km/h (1 Bft)
01.06.2014 14:30 17,1 C 18,3 C 63 % 1021,1 hPa 0,0 l/m 0 min 0 min 2,0 UV-I 385 W/m 10,3 km/h (2 Bft)
01.06.2014 14:32 17,2 C 18,3 C 63 % 1021,1 hPa 0,0 l/m 0 min 0 min 2,1 UV-I 387 W/m 7,7 km/h (2 Bft)
01.06.2014 14:34 17,4 C 18,3 C 65 % 1021,2 hPa 0,0 l/m 0 min 0 min 2,2 UV-I 427 W/m 7,7 km/h (2 Bft)
01.06.2014 14:36 17,6 C 18,9 C 64 % 1021,1 hPa 0,0 l/m 2 min 0 min 2,4 UV-I 714 W/m 2,6 km/h (1 Bft)
01.06.2014 14:38 17,6 C 18,9 C 60 % 1021,2 hPa 0,0 l/m 0 min 0 min 2,1 UV-I 396 W/m 7,7 km/h (2 Bft)
01.06.2014 14:40 17,3 C 18,3 C 59 % 1021,1 hPa 0,0 l/m 2 min 0 min 2,6 UV-I 462 W/m 2,6 km/h (1 Bft)
01.06.2014 14:42 17,4 C 18,9 C 63 % 1021,0 hPa 0,0 l/m 0 min 0 min 2,2 UV-I 452 W/m 0,0 km/h (0 Bft)
01.06.2014 14:44 17,7 C 18,9 C 63 % 1021,1 hPa 0,0 l/m 2 min 0 min 2,6 UV-I 510 W/m 0,0 km/h (0 Bft)
01.06.2014 14:46 17,7 C 18,9 C 61 % 1021,0 hPa 0,0 l/m 2 min 0 min 2,3 UV-I 462 W/m 10,3 km/h (2 Bft)
01.06.2014 14:48 17,8 C 18,9 C 63 % 1021,0 hPa 0,0 l/m 2 min 0 min 2,3 UV-I 471 W/m 5,1 km/h (1 Bft)
01.06.2014 14:50 17,8 C 18,9 C 61 % 1021,0 hPa 0,0 l/m 2 min 0 min 2,3 UV-I 459 W/m 10,3 km/h (2 Bft)
01.06.2014 14:52 17,8 C 18,9 C 63 % 1021,0 hPa 0,0 l/m 2 min 0 min 2,4 UV-I 496 W/m 0,0 km/h (0 Bft)
01.06.2014 14:54 17,9 C 18,9 C 65 % 1021,0 hPa 0,0 l/m 2 min 0 min 4,0 UV-I 1037 W/m 10,3 km/h (2 Bft)
01.06.2014 14:56 18,0 C 18,9 C 61 % 1020,9 hPa 0,0 l/m 2 min 0 min 2,7 UV-I 1037 W/m 10,3 km/h (2 Bft)
01.06.2014 14:58 17,9 C 18,9 C 59 % 1020,9 hPa 0,0 l/m 2 min 0 min 3,1 UV-I 791 W/m 10,3 km/h (2 Bft)
01.06.2014 15:00 17,9 C 18,9 C 61 % 1020,9 hPa 0,0 l/m 2 min 0 min 3,7 UV-I 932 W/m 10,3 km/h (2 Bft)
01.06.2014 15:02 17,9 C 18,9 C 61 % 1020,9 hPa 0,0 l/m 2 min 0 min 3,8 UV-I 928 W/m 10,3 km/h (2 Bft)
01.06.2014 15:06 18,2 C 19,4 C 63 % 1020,8 hPa 0,0 l/m 2 min 0 min 3,9 UV-I 928 W/m 12,9 km/h (3 Bft)
01.06.2014 15:08 18,6 C 19,4 C 60 % 1020,8 hPa 0,0 l/m 2 min 0 min 3,8 UV-I 907 W/m 12,9 km/h (3 Bft)
01.06.2014 15:10 18,5 C 19,4 C 57 % 1020,8 hPa 0,0 l/m 2 min 0 min 3,7 UV-I 877 W/m 18,0 km/h (3 Bft)
01.06.2014 15:12 18,3 C 19,4 C 58 % 1020,8 hPa 0,0 l/m 2 min 0 min 3,7 UV-I 872 W/m 15,4 km/h (3 Bft)
01.06.2014 15:14 18,4 C 20,0 C 58 % 1020,8 hPa 0,0 l/m 2 min 0 min 3,6 UV-I 868 W/m 10,3 km/h (2 Bft)
01.06.2014 15:16 18,7 C 20,6 C 60 % 1020,8 hPa 0,0 l/m 2 min 0 min 3,5 UV-I 851 W/m 12,9 km/h (3 Bft)
01.06.2014 15:18 19,2 C 22,2 C 61 % 1020,8 hPa 0,0 l/m 2 min 0 min 3,5 UV-I 842 W/m 7,7 km/h (2 Bft)
01.06.2014 15:20 19,2 C 22,8 C 56 % 1020,8 hPa 0,0 l/m 2 min 0 min 3,5 UV-I 847 W/m 12,9 km/h (3 Bft)
01.06.2014 15:22 18,9 C 22,2 C 56 % 1020,8 hPa 0,0 l/m 2 min 0 min 3,5 UV-I 846 W/m 7,7 km/h (2 Bft)
01.06.2014 15:24 18,8 C 22,8 C 56 % 1020,8 hPa 0,0 l/m 2 min 0 min 3,5 UV-I 830 W/m 2,6 km/h (1 Bft)
01.06.2014 15:26 18,9 C 22,8 C 56 % 1020,8 hPa 0,0 l/m 2 min 0 min 3,3 UV-I 675 W/m 10,3 km/h (2 Bft)
01.06.2014 15:28 18,7 C 23,3 C 56 % 1020,8 hPa 0,0 l/m 2 min 0 min 3,4 UV-I 830 W/m 12,9 km/h (3 Bft)
01.06.2014 15:30 18,7 C 22,2 C 56 % 1020,7 hPa 0,0 l/m 2 min 0 min 2,7 UV-I 747 W/m 12,9 km/h (3 Bft)
01.06.2014 15:32 18,3 C 21,7 C 55 % 1020,7 hPa 0,0 l/m 2 min 0 min 3,3 UV-I 496 W/m 2,6 km/h (1 Bft)
01.06.2014 15:34 18,1 C 23,3 C 59 % 1020,7 hPa 0,0 l/m 2 min 0 min 3,3 UV-I 824 W/m 0,0 km/h (0 Bft)
01.06.2014 15:36 18,0 C 22,8 C 56 % 1020,7 hPa 0,0 l/m 2 min 0 min 3,0 UV-I 810 W/m 0,0 km/h (0 Bft)
01.06.2014 15:38 18,1 C 23,3 C 58 % 1020,6 hPa 0,0 l/m 2 min 0 min 3,1 UV-I 729 W/m 10,3 km/h (2 Bft)
01.06.2014 15:40 18,3 C 22,8 C 57 % 1020,6 hPa 0,0 l/m 2 min 0 min 3,2 UV-I 800 W/m 10,3 km/h (2 Bft)
01.06.2014 15:42 18,8 C 22,8 C 55 % 1020,6 hPa 0,0 l/m 2 min 0 min 3,3 UV-I 844 W/m 12,9 km/h (3 Bft)
01.06.2014 15:44 18,8 C 22,2 C 57 % 1020,6 hPa 0,0 l/m 2 min 0 min 3,1 UV-I 828 W/m 7,7 km/h (2 Bft)
01.06.2014 15:46 18,8 C 21,1 C 55 % 1020,5 hPa 0,0 l/m 0 min 0 min 1,9 UV-I 253 W/m 2,6 km/h (1 Bft)
01.06.2014 15:48 18,7 C 20,6 C 56 % 1020,5 hPa 0,0 l/m 2 min 0 min 3,0 UV-I 807 W/m 10,3 km/h (2 Bft)
01.06.2014 15:50 18,6 C 20,6 C 54 % 1020,5 hPa 0,0 l/m 2 min 0 min 2,9 UV-I 800 W/m 15,4 km/h (3 Bft)
01.06.2014 15:52 18,4 C 20,0 C 54 % 1020,4 hPa 0,0 l/m 0 min 0 min 1,7 UV-I 260 W/m 10,3 km/h (2 Bft)
01.06.2014 15:54 18,1 C 19,4 C 55 % 1020,5 hPa 0,0 l/m 0 min 0 min 2,7 UV-I 260 W/m 10,3 km/h (2 Bft)
01.06.2014 15:56 18,2 C 18,9 C 55 % 1020,5 hPa 0,0 l/m 2 min 0 min 1,7 UV-I 779 W/m 12,9 km/h (3 Bft)
01.06.2014 15:58 18,2 C 18,3 C 56 % 1020,4 hPa 0,0 l/m 0 min 0 min 1,1 UV-I 171 W/m 10,3 km/h (2 Bft)
01.06.2014 16:00 18,0 C 17,8 C 55 % 1020,4 hPa 0,0 l/m 0 min 0 min 1,1 UV-I 167 W/m 12,9 km/h (3 Bft)
01.06.2014 16:02 17,8 C 17,8 C 55 % 1020,4 hPa 0,0 l/m 0 min 0 min 1,1 UV-I 178 W/m 10,3 km/h (2 Bft)
01.06.2014 16:06 17,6 C 17,2 C 56 % 1020,4 hPa 0,0 l/m 0 min 0 min 1,1 UV-I 186 W/m 7,7 km/h (2 Bft)
01.06.2014 16:08 17,5 C 17,2 C 57 % 1020,4 hPa 0,0 l/m 0 min 0 min 1,2 UV-I 202 W/m 2,6 km/h (1 Bft)
01.06.2014 16:10 17,5 C 17,2 C 57 % 1020,4 hPa 0,0 l/m 0 min 0 min 1,3 UV-I 234 W/m 5,1 km/h (1 Bft)
01.06.2014 16:12 17,4 C 17,8 C 58 % 1020,3 hPa 0,0 l/m 2 min 0 min 2,5 UV-I 780 W/m 10,3 km/h (2 Bft)
01.06.2014 16:14 17,7 C 17,8 C 57 % 1020,3 hPa 0,0 l/m 2 min 0 min 2,4 UV-I 765 W/m 25,7 km/h (4 Bft)
01.06.2014 16:16 18,0 C 18,3 C 58 % 1020,3 hPa 0,0 l/m 2 min 0 min 2,2 UV-I 675 W/m 18,0 km/h (3 Bft)
01.06.2014 16:18 18,2 C 18,3 C 58 % 1020,3 hPa 0,0 l/m 2 min 0 min 2,0 UV-I 675 W/m 10,3 km/h (2 Bft)
01.06.2014 16:20 18,2 C 18,3 C 56 % 1020,3 hPa 0,0 l/m 2 min 0 min 1,5 UV-I 675 W/m 12,9 km/h (3 Bft)
01.06.2014 16:22 18,1 C 18,3 C 56 % 1020,3 hPa 0,0 l/m 2 min 0 min 2,3 UV-I 675 W/m 12,9 km/h (3 Bft)
01.06.2014 16:24 18,2 C 18,3 C 54 % 1020,3 hPa 0,0 l/m 2 min 0 min 1,9 UV-I 675 W/m 10,3 km/h (2 Bft)
01.06.2014 16:26 18,1 C 17,8 C 54 % 1020,3 hPa 0,0 l/m 2 min 0 min 2,2 UV-I 652 W/m 10,3 km/h (2 Bft)
01.06.2014 16:28 18,0 C 17,8 C 54 % 1020,3 hPa 0,0 l/m 2 min 0 min 2,3 UV-I 722 W/m 12,9 km/h (3 Bft)
01.06.2014 16:30 18,1 C 18,3 C 55 % 1020,3 hPa 0,0 l/m 2 min 0 min 2,3 UV-I 708 W/m 0,0 km/h (0 Bft)
01.06.2014 16:32 18,3 C 18,3 C 53 % 1020,2 hPa 0,0 l/m 2 min 0 min 1,6 UV-I 629 W/m 15,4 km/h (3 Bft)
01.06.2014 16:34 18,4 C 18,3 C 53 % 1020,2 hPa 0,0 l/m 2 min 0 min 2,2 UV-I 668 W/m 12,9 km/h (3 Bft)
01.06.2014 16:36 18,6 C 18,9 C 53 % 1020,2 hPa 0,0 l/m 2 min 0 min 2,2 UV-I 663 W/m 12,9 km/h (3 Bft)
01.06.2014 16:38 18,7 C 18,9 C 51 % 1020,2 hPa 0,0 l/m 2 min 0 min 2,2 UV-I 673 W/m 12,9 km/h (3 Bft)
01.06.2014 16:40 18,8 C 18,9 C 52 % 1020,1 hPa 0,0 l/m 2 min 0 min 2,2 UV-I 670 W/m 15,4 km/h (3 Bft)
01.06.2014 16:42 18,8 C 18,9 C 51 % 1020,2 hPa 0,0 l/m 2 min 0 min 2,2 UV-I 671 W/m 10,3 km/h (2 Bft)
01.06.2014 16:44 18,8 C 18,9 C 52 % 1020,2 hPa 0,0 l/m 2 min 0 min 2,1 UV-I 652 W/m 12,9 km/h (3 Bft)
01.06.2014 16:46 18,6 C 18,9 C 50 % 1020,2 hPa 0,0 l/m 2 min 0 min 2,1 UV-I 657 W/m 12,9 km/h (3 Bft)
01.06.2014 16:48 18,8 C 18,9 C 53 % 1020,2 hPa 0,0 l/m 2 min 0 min 2,1 UV-I 656 W/m 7,7 km/h (2 Bft)
01.06.2014 16:50 19,1 C 18,9 C 54 % 1020,1 hPa 0,0 l/m 2 min 0 min 2,0 UV-I 635 W/m 7,7 km/h (2 Bft)
01.06.2014 16:52 19,3 C 19,4 C 51 % 1020,1 hPa 0,0 l/m 2 min 0 min 1,9 UV-I 619 W/m 2,6 km/h (1 Bft)
01.06.2014 16:54 19,4 C 19,4 C 50 % 1020,1 hPa 0,0 l/m 2 min 0 min 1,9 UV-I 629 W/m 12,9 km/h (3 Bft)
01.06.2014 16:56 19,3 C 19,4 C 51 % 1020,1 hPa 0,0 l/m 2 min 0 min 1,9 UV-I 633 W/m 12,9 km/h (3 Bft)
01.06.2014 16:58 19,2 C 18,9 C 50 % 1020,1 hPa 0,0 l/m 2 min 0 min 1,9 UV-I 633 W/m 10,3 km/h (2 Bft)
01.06.2014 17:00 19,3 C 18,9 C 53 % 1020,1 hPa 0,0 l/m 2 min 0 min 1,9 UV-I 635 W/m 5,1 km/h (1 Bft)
01.06.2014 17:02 19,2 C 18,9 C 51 % 1020,1 hPa 0,0 l/m 2 min 0 min 1,9 UV-I 631 W/m 7,7 km/h (2 Bft)
01.06.2014 17:06 19,1 C 18,3 C 51 % 1020,0 hPa 0,0 l/m 2 min 0 min 1,8 UV-I 622 W/m 20,6 km/h (4 Bft)
01.06.2014 17:08 18,9 C 18,9 C 52 % 1020,0 hPa 0,0 l/m 2 min 0 min 1,8 UV-I 629 W/m 12,9 km/h (3 Bft)
01.06.2014 17:10 19,2 C 18,9 C 52 % 1020,0 hPa 0,0 l/m 2 min 0 min 1,7 UV-I 633 W/m 10,3 km/h (2 Bft)
01.06.2014 17:12 19,2 C 18,9 C 52 % 1020,0 hPa 0,0 l/m 2 min 0 min 1,7 UV-I 652 W/m 12,9 km/h (3 Bft)
01.06.2014 17:14 19,1 C 18,9 C 52 % 1020,0 hPa 0,0 l/m 2 min 0 min 1,7 UV-I 654 W/m 12,9 km/h (3 Bft)
01.06.2014 17:16 18,9 C 19,4 C 53 % 1020,0 hPa 0,0 l/m 2 min 0 min 1,6 UV-I 642 W/m 2,6 km/h (1 Bft)
01.06.2014 17:18 18,9 C 19,4 C 53 % 1020,1 hPa 0,0 l/m 2 min 0 min 1,4 UV-I 613 W/m 20,6 km/h (4 Bft)
01.06.2014 17:20 18,9 C 18,9 C 55 % 1020,0 hPa 0,0 l/m 2 min 0 min 1,5 UV-I 636 W/m 18,0 km/h (3 Bft)
01.06.2014 17:22 18,8 C 18,9 C 54 % 1020,0 hPa 0,0 l/m 2 min 0 min 1,5 UV-I 635 W/m 12,9 km/h (3 Bft)
01.06.2014 17:24 18,9 C 18,9 C 55 % 1020,0 hPa 0,0 l/m 2 min 0 min 1,4 UV-I 566 W/m 12,9 km/h (3 Bft)
01.06.2014 17:26 19,1 C 18,9 C 56 % 1020,0 hPa 0,0 l/m 0 min 0 min 0,7 UV-I 199 W/m 10,3 km/h (2 Bft)
01.06.2014 17:28 19,1 C 18,9 C 55 % 1020,0 hPa 0,0 l/m 0 min 0 min 0,7 UV-I 199 W/m 10,3 km/h (2 Bft)
01.06.2014 17:30 18,8 C 18,3 C 54 % 1020,0 hPa 0,0 l/m 0 min 0 min 0,6 UV-I 158 W/m 10,3 km/h (2 Bft)
01.06.2014 17:32 18,6 C 17,8 C 55 % 1020,0 hPa 0,0 l/m 0 min 0 min 0,5 UV-I 151 W/m 5,1 km/h (1 Bft)
01.06.2014 17:34 18,4 C 17,8 C 55 % 1020,0 hPa 0,0 l/m 0 min 0 min 0,5 UV-I 146 W/m 5,1 km/h (1 Bft)
01.06.2014 17:36 18,2 C 17,8 C 56 % 1020,0 hPa 0,0 l/m 0 min 0 min 0,5 UV-I 137 W/m 10,3 km/h (2 Bft)
01.06.2014 17:38 18,1 C 17,2 C 56 % 1019,9 hPa 0,0 l/m 0 min 0 min 0,0 UV-I 135 W/m 10,3 km/h (2 Bft)
01.06.2014 17:40 18,0 C 17,2 C 57 % 1019,9 hPa 0,0 l/m 0 min 0 min 0,0 UV-I 135 W/m 5,1 km/h (1 Bft)
01.06.2014 17:42 17,9 C 17,2 C 56 % 1019,9 hPa 0,0 l/m 0 min 0 min 0,0 UV-I 134 W/m 10,3 km/h (2 Bft)
01.06.2014 17:44 17,8 C 17,2 C 56 % 1020,0 hPa 0,0 l/m 0 min 0 min 0,0 UV-I 125 W/m 10,3 km/h (2 Bft)
01.06.2014 17:46 17,7 C 17,2 C 57 % 1020,0 hPa 0,0 l/m 0 min 0 min 0,0 UV-I 121 W/m 2,6 km/h (1 Bft)
01.06.2014 17:48 17,7 C 16,7 C 56 % 1020,0 hPa 0,0 l/m 0 min 0 min 0,0 UV-I 125 W/m 0,0 km/h (0 Bft)
01.06.2014 17:50 17,7 C 16,7 C 56 % 1020,0 hPa 0,0 l/m 0 min 0 min 0,0 UV-I 123 W/m 0,0 km/h (0 Bft)
01.06.2014 17:52 17,6 C 16,7 C 56 % 1020,0 hPa 0,0 l/m 0 min 0 min 0,0 UV-I 125 W/m 0,0 km/h (0 Bft)
01.06.2014 17:54 17,6 C 16,7 C 56 % 1020,0 hPa 0,0 l/m 0 min 0 min 0,0 UV-I 135 W/m 2,6 km/h (1 Bft)
01.06.2014 17:56 17,6 C 16,7 C 55 % 1019,9 hPa 0,0 l/m 0 min 0 min 0,0 UV-I 139 W/m 0,0 km/h (0 Bft)
01.06.2014 17:58 17,6 C 16,7 C 56 % 1019,9 hPa 0,0 l/m 0 min 0 min 0,0 UV-I 144 W/m 0,0 km/h (0 Bft)
01.06.2014 18:00 17,7 C 17,2 C 56 % 1019,9 hPa 0,0 l/m 2 min 0 min 0,0 UV-I 309 W/m 0,0 km/h (0 Bft)
01.06.2014 18:02 17,7 C 16,7 C 55 % 1019,9 hPa 0,0 l/m 0 min 0 min 0,0 UV-I 220 W/m 12,9 km/h (3 Bft)
01.06.2014 18:06 17,8 C 16,7 C 53 % 1019,9 hPa 0,0 l/m 0 min 0 min 0,0 UV-I 229 W/m 12,9 km/h (3 Bft)
01.06.2014 18:08 17,8 C 16,7 C 54 % 1019,8 hPa 0,0 l/m 0 min 0 min 0,0 UV-I 239 W/m 7,7 km/h (2 Bft)
01.06.2014 18:10 18,0 C 16,7 C 53 % 1019,8 hPa 0,0 l/m 0 min 0 min 0,0 UV-I 214 W/m 10,3 km/h (2 Bft)
01.06.2014 18:12 18,1 C 16,7 C 54 % 1019,8 hPa 0,0 l/m 0 min 0 min 0,0 UV-I 172 W/m 7,7 km/h (2 Bft)
01.06.2014 18:14 18,1 C 16,7 C 53 % 1019,8 hPa 0,0 l/m 0 min 0 min 0,0 UV-I 162 W/m 2,6 km/h (1 Bft)
01.06.2014 18:16 18,1 C 16,7 C 53 % 1019,7 hPa 0,0 l/m 0 min 0 min 0,0 UV-I 109 W/m 0,0 km/h (0 Bft)
01.06.2014 18:18 17,9 C 16,7 C 53 % 1019,7 hPa 0,0 l/m 0 min 0 min 0,0 UV-I 211 W/m 0,0 km/h (0 Bft)
01.06.2014 18:20 17,9 C 16,7 C 54 % 1019,7 hPa 0,0 l/m 2 min 0 min 0,0 UV-I 413 W/m 0,0 km/h (0 Bft)
01.06.2014 18:22 18,0 C 16,7 C 55 % 1019,7 hPa 0,0 l/m 0 min 0 min 0,0 UV-I 109 W/m 0,0 km/h (0 Bft)
01.06.2014 18:24 18,1 C 16,7 C 55 % 1019,7 hPa 0,0 l/m 0 min 0 min 0,0 UV-I 111 W/m 2,6 km/h (1 Bft)
01.06.2014 18:26 17,9 C 16,7 C 54 % 1019,6 hPa 0,0 l/m 0 min 0 min 0,0 UV-I 107 W/m 0,0 km/h (0 Bft)
01.06.2014 18:28 17,9 C 16,7 C 56 % 1019,6 hPa 0,0 l/m 0 min 0 min 0,0 UV-I 213 W/m 0,0 km/h (0 Bft)
01.06.2014 18:30 17,9 C 16,7 C 56 % 1019,7 hPa 0,0 l/m 0 min 0 min 0,0 UV-I 130 W/m 2,6 km/h (1 Bft)
01.06.2014 18:32 18,0 C 16,7 C 57 % 1019,6 hPa 0,0 l/m 0 min 0 min 0,0 UV-I 165 W/m 0,0 km/h (0 Bft)
01.06.2014 18:34 18,1 C 16,7 C 55 % 1019,6 hPa 0,0 l/m 0 min 0 min 0,0 UV-I 179 W/m 0,0 km/h (0 Bft)
01.06.2014 18:36 18,3 C 17,2 C 55 % 1019,6 hPa 0,0 l/m 0 min 0 min 0,0 UV-I 178 W/m 0,0 km/h (0 Bft)
01.06.2014 18:38 18,5 C 17,2 C 55 % 1019,6 hPa 0,0 l/m 0 min 0 min 0,0 UV-I 160 W/m 12,9 km/h (3 Bft)
01.06.2014 18:40 18,6 C 17,2 C 53 % 1019,6 hPa 0,0 l/m 0 min 0 min 0,0 UV-I 148 W/m 12,9 km/h (3 Bft)
01.06.2014 18:42 18,5 C 17,2 C 52 % 1019,6 hPa 0,0 l/m 0 min 0 min 0,0 UV-I 146 W/m 12,9 km/h (3 Bft)
01.06.2014 18:44 18,4 C 17,2 C 53 % 1019,5 hPa 0,0 l/m 0 min 0 min 0,0 UV-I 153 W/m 7,7 km/h (2 Bft)
01.06.2014 18:46 18,4 C 17,2 C 53 % 1019,6 hPa 0,0 l/m 0 min 0 min 0,0 UV-I 163 W/m 7,7 km/h (2 Bft)
01.06.2014 18:48 18,5 C 17,2 C 52 % 1019,6 hPa 0,0 l/m 0 min 0 min 0,0 UV-I 185 W/m 15,4 km/h (3 Bft)
01.06.2014 18:50 18,5 C 17,2 C 52 % 1019,6 hPa 0,0 l/m 0 min 0 min 0,0 UV-I 213 W/m 2,6 km/h (1 Bft)
01.06.2014 18:52 18,4 C 17,2 C 53 % 1019,6 hPa 0,0 l/m 0 min 0 min 0,0 UV-I 163 W/m 10,3 km/h (2 Bft)
01.06.2014 18:54 18,4 C 17,8 C 53 % 1019,6 hPa 0,0 l/m 0 min 0 min 0,0 UV-I 142 W/m 0,0 km/h (0 Bft)
01.06.2014 18:56 18,5 C 17,8 C 54 % 1019,5 hPa 0,0 l/m 0 min 0 min 0,0 UV-I 128 W/m 7,7 km/h (2 Bft)
01.06.2014 18:58 18,6 C 17,8 C 56 % 1019,5 hPa 0,0 l/m 0 min 0 min 0,0 UV-I 197 W/m 2,6 km/h (1 Bft)
01.06.2014 19:00 18,6 C 17,8 C 55 % 1019,5 hPa 0,0 l/m 0 min 0 min 0,0 UV-I 174 W/m 7,7 km/h (2 Bft)
01.06.2014 19:02 18,6 C 17,8 C 56 % 1019,5 hPa 0,0 l/m 0 min 0 min 0,0 UV-I 137 W/m 12,9 km/h (3 Bft)
01.06.2014 19:06 18,5 C 17,2 C 55 % 1019,4 hPa 0,0 l/m 0 min 0 min 0,0 UV-I 100 W/m 12,9 km/h (3 Bft)
01.06.2014 19:08 18,5 C 17,2 C 54 % 1019,5 hPa 0,0 l/m 0 min 0 min 0,0 UV-I 95 W/m 15,4 km/h (3 Bft)
01.06.2014 19:10 18,4 C 17,2 C 54 % 1019,5 hPa 0,0 l/m 0 min 0 min 0,0 UV-I 84 W/m 7,7 km/h (2 Bft)
01.06.2014 19:12 18,3 C 17,2 C 54 % 1019,4 hPa 0,0 l/m 0 min 0 min 0,0 UV-I 83 W/m 2,6 km/h (1 Bft)
01.06.2014 19:14 18,2 C 16,7 C 55 % 1019,4 hPa 0,0 l/m 0 min 0 min 0,0 UV-I 83 W/m 10,3 km/h (2 Bft)
01.06.2014 19:16 18,3 C 17,2 C 55 % 1019,4 hPa 0,0 l/m 0 min 0 min 0,0 UV-I 76 W/m 15,4 km/h (3 Bft)
01.06.2014 19:18 18,3 C 17,2 C 56 % 1019,4 hPa 0,0 l/m 0 min 0 min 0,0 UV-I 72 W/m 7,7 km/h (2 Bft)
01.06.2014 19:20 18,3 C 17,2 C 56 % 1019,4 hPa 0,0 l/m 0 min 0 min 0,0 UV-I 72 W/m 7,7 km/h (2 Bft)
01.06.2014 19:22 18,2 C 16,7 C 56 % 1019,4 hPa 0,0 l/m 0 min 0 min 0,0 UV-I 70 W/m 0,0 km/h (0 Bft)
01.06.2014 19:24 18,1 C 16,7 C 57 % 1019,4 hPa 0,0 l/m 0 min 0 min 0,0 UV-I 69 W/m 10,3 km/h (2 Bft)
01.06.2014 19:26 18,1 C 16,7 C 56 % 1019,4 hPa 0,0 l/m 0 min 0 min 0,0 UV-I 69 W/m 12,9 km/h (3 Bft)
01.06.2014 19:28 18,1 C 16,7 C 56 % 1019,4 hPa 0,0 l/m 0 min 0 min 0,0 UV-I 67 W/m 12,9 km/h (3 Bft)
01.06.2014 19:30 18,1 C 16,7 C 56 % 1019,4 hPa 0,0 l/m 0 min 0 min 0,0 UV-I 67 W/m 15,4 km/h (3 Bft)
01.06.2014 19:32 18,0 C 16,7 C 56 % 1019,5 hPa 0,0 l/m 0 min 0 min 0,0 UV-I 65 W/m 15,4 km/h (3 Bft)
01.06.2014 19:34 17,9 C 16,7 C 55 % 1019,5 hPa 0,0 l/m 0 min 0 min 0,0 UV-I 63 W/m 15,4 km/h (3 Bft)
01.06.2014 19:36 17,9 C 16,7 C 56 % 1019,5 hPa 0,0 l/m 0 min 0 min 0,0 UV-I 63 W/m 12,9 km/h (3 Bft)
01.06.2014 19:38 17,9 C 16,7 C 57 % 1019,5 hPa 0,0 l/m 0 min 0 min 0,0 UV-I 62 W/m 12,9 km/h (3 Bft)
01.06.2014 19:40 17,8 C 16,7 C 56 % 1019,5 hPa 0,0 l/m 0 min 0 min 0,0 UV-I 62 W/m 12,9 km/h (3 Bft)
01.06.2014 19:42 17,8 C 16,7 C 57 % 1019,5 hPa 0,0 l/m 0 min 0 min 0,0 UV-I 60 W/m 2,6 km/h (1 Bft)
01.06.2014 19:44 17,8 C 16,7 C 57 % 1019,4 hPa 0,0 l/m 0 min 0 min 0,0 UV-I 60 W/m 2,6 km/h (1 Bft)
01.06.2014 19:46 17,8 C 16,7 C 57 % 1019,4 hPa 0,0 l/m 0 min 0 min 0,0 UV-I 58 W/m 10,3 km/h (2 Bft)
01.06.2014 19:48 17,8 C 16,7 C 57 % 1019,5 hPa 0,0 l/m 0 min 0 min 0,0 UV-I 58 W/m 7,7 km/h (2 Bft)
01.06.2014 19:50 17,8 C 16,7 C 56 % 1019,5 hPa 0,0 l/m 0 min 0 min 0,0 UV-I 58 W/m 10,3 km/h (2 Bft)
01.06.2014 19:52 17,8 C 16,7 C 56 % 1019,5 hPa 0,0 l/m 0 min 0 min 0,0 UV-I 56 W/m 10,3 km/h (2 Bft)
01.06.2014 19:54 17,8 C 16,7 C 55 % 1019,6 hPa 0,0 l/m 0 min 0 min 0,0 UV-I 56 W/m 7,7 km/h (2 Bft)
01.06.2014 19:56 17,7 C 16,7 C 56 % 1019,5 hPa 0,0 l/m 0 min 0 min 0,0 UV-I 54 W/m 7,7 km/h (2 Bft)
01.06.2014 19:58 17,8 C 16,7 C 56 % 1019,5 hPa 0,0 l/m 0 min 0 min 0,0 UV-I 54 W/m 2,6 km/h (1 Bft)
01.06.2014 20:00 17,8 C 16,7 C 57 % 1019,5 hPa 0,0 l/m 0 min 0 min 0,0 UV-I 54 W/m 0,0 km/h (0 Bft)
01.06.2014 20:02 17,8 C 16,7 C 56 % 1019,6 hPa 0,0 l/m 0 min 0 min 0,0 UV-I 53 W/m 5,1 km/h (1 Bft)
01.06.2014 20:06 17,7 C 16,1 C 56 % 1019,5 hPa 0,0 l/m 0 min 0 min 0,0 UV-I 51 W/m 2,6 km/h (1 Bft)
01.06.2014 20:08 17,7 C 16,1 C 56 % 1019,6 hPa 0,0 l/m 0 min 0 min 0,0 UV-I 49 W/m 0,0 km/h (0 Bft)
01.06.2014 20:10 17,7 C 16,1 C 56 % 1019,5 hPa 0,0 l/m 0 min 0 min 0,0 UV-I 47 W/m 2,6 km/h (1 Bft)
01.06.2014 20:12 17,7 C 16,1 C 56 % 1019,6 hPa 0,0 l/m 0 min 0 min 0,0 UV-I 47 W/m 0,0 km/h (0 Bft)
01.06.2014 20:14 17,7 C 16,1 C 57 % 1019,6 hPa 0,0 l/m 0 min 0 min 0,0 UV-I 46 W/m 0,0 km/h (0 Bft)
01.06.2014 20:16 17,6 C 16,1 C 57 % 1019,6 hPa 0,0 l/m 0 min 0 min 0,0 UV-I 44 W/m 0,0 km/h (0 Bft)
01.06.2014 20:18 17,6 C 16,1 C 57 % 1019,6 hPa 0,0 l/m 0 min 0 min 0,0 UV-I 44 W/m 0,0 km/h (0 Bft)
01.06.2014 20:20 17,6 C 16,1 C 57 % 1019,5 hPa 0,0 l/m 0 min 0 min 0,0 UV-I 42 W/m 2,6 km/h (1 Bft)
01.06.2014 20:22 17,6 C 16,1 C 57 % 1019,5 hPa 0,0 l/m 0 min 0 min 0,0 UV-I 40 W/m 0,0 km/h (0 Bft)
01.06.2014 20:24 17,5 C 16,1 C 58 % 1019,6 hPa 0,0 l/m 0 min 0 min 0,0 UV-I 40 W/m 0,0 km/h (0 Bft)
01.06.2014 20:26 17,4 C 16,1 C 58 % 1019,5 hPa 0,0 l/m 0 min 0 min 0,0 UV-I 40 W/m 2,6 km/h (1 Bft)
01.06.2014 20:28 17,4 C 16,1 C 58 % 1019,6 hPa 0,0 l/m 0 min 0 min 0,0 UV-I 39 W/m 0,0 km/h (0 Bft)
01.06.2014 20:30 17,4 C 15,6 C 58 % 1019,6 hPa 0,0 l/m 0 min 0 min 0,0 UV-I 39 W/m 0,0 km/h (0 Bft)
01.06.2014 20:32 17,3 C 15,6 C 58 % 1019,6 hPa 0,0 l/m 0 min 0 min 0,0 UV-I 37 W/m 0,0 km/h (0 Bft)
01.06.2014 20:34 17,3 C 15,6 C 59 % 1019,6 hPa 0,0 l/m 0 min 0 min 0,0 UV-I 37 W/m 0,0 km/h (0 Bft)
01.06.2014 20:36 17,3 C 15,6 C 59 % 1019,6 hPa 0,0 l/m 0 min 0 min 0,0 UV-I 35 W/m 2,6 km/h (1 Bft)
01.06.2014 20:38 17,2 C 15,6 C 59 % 1019,6 hPa 0,0 l/m 0 min 0 min 0,0 UV-I 35 W/m 0,0 km/h (0 Bft)
01.06.2014 20:40 17,2 C 15,6 C 60 % 1019,6 hPa 0,0 l/m 0 min 0 min 0,0 UV-I 33 W/m 0,0 km/h (0 Bft)
01.06.2014 20:42 17,1 C 15,6 C 61 % 1019,6 hPa 0,0 l/m 0 min 0 min 0,0 UV-I 33 W/m 0,0 km/h (0 Bft)
01.06.2014 20:44 17,1 C 15,0 C 61 % 1019,6 hPa 0,0 l/m 0 min 0 min 0,0 UV-I 32 W/m 0,0 km/h (0 Bft)
01.06.2014 20:46 16,9 C 15,0 C 62 % 1019,6 hPa 0,0 l/m 0 min 0 min 0,0 UV-I 32 W/m 0,0 km/h (0 Bft)
01.06.2014 20:48 16,9 C 15,0 C 62 % 1019,6 hPa 0,0 l/m 0 min 0 min 0,0 UV-I 30 W/m 0,0 km/h (0 Bft)
01.06.2014 20:50 16,9 C 15,0 C 62 % 1019,6 hPa 0,0 l/m 0 min 0 min 0,0 UV-I 28 W/m 0,0 km/h (0 Bft)
01.06.2014 20:52 16,8 C 15,0 C 62 % 1019,6 hPa 0,0 l/m 0 min 0 min 0,0 UV-I 28 W/m 2,6 km/h (1 Bft)
01.06.2014 20:54 16,8 C 15,0 C 62 % 1019,6 hPa 0,0 l/m 0 min 0 min 0,0 UV-I 26 W/m 0,0 km/h (0 Bft)
01.06.2014 20:56 16,8 C 15,0 C 62 % 1019,6 hPa 0,0 l/m 0 min 0 min 0,0 UV-I 25 W/m 2,6 km/h (1 Bft)
01.06.2014 20:58 16,7 C 15,0 C 62 % 1019,6 hPa 0,0 l/m 0 min 0 min 0,0 UV-I 25 W/m 0,0 km/h (0 Bft)
01.06.2014 21:00 16,7 C 15,0 C 62 % 1019,6 hPa 0,0 l/m 0 min 0 min 0,0 UV-I 23 W/m 2,6 km/h (1 Bft)
01.06.2014 21:02 16,6 C 15,0 C 63 % 1019,6 hPa 0,0 l/m 0 min 0 min 0,0 UV-I 23 W/m 0,0 km/h (0 Bft)
01.06.2014 21:06 16,4 C 14,4 C 63 % 1019,6 hPa 0,0 l/m 0 min 0 min 0,0 UV-I 19 W/m 0,0 km/h (0 Bft)
01.06.2014 21:08 16,3 C 14,4 C 64 % 1019,6 hPa 0,0 l/m 0 min 0 min 0,0 UV-I 19 W/m 0,0 km/h (0 Bft)
01.06.2014 21:10 16,3 C 13,9 C 64 % 1019,6 hPa 0,0 l/m 0 min 0 min 0,0 UV-I 18 W/m 0,0 km/h (0 Bft)
01.06.2014 21:12 16,2 C 13,9 C 65 % 1019,6 hPa 0,0 l/m 0 min 0 min 0,0 UV-I 16 W/m 0,0 km/h (0 Bft)
01.06.2014 21:14 16,2 C 13,9 C 64 % 1019,6 hPa 0,0 l/m 0 min 0 min 0,0 UV-I 16 W/m 0,0 km/h (0 Bft)
01.06.2014 21:16 16,1 C 13,3 C 65 % 1019,6 hPa 0,0 l/m 0 min 0 min 0,0 UV-I 16 W/m 0,0 km/h (0 Bft)
01.06.2014 21:18 16,0 C 13,3 C 64 % 1019,6 hPa 0,0 l/m 0 min 0 min 0,0 UV-I 14 W/m 0,0 km/h (0 Bft)
01.06.2014 21:20 15,9 C 13,3 C 65 % 1019,6 hPa 0,0 l/m 0 min 0 min 0,0 UV-I 12 W/m 0,0 km/h (0 Bft)
01.06.2014 21:22 15,8 C 13,3 C 66 % 1019,6 hPa 0,0 l/m 0 min 0 min 0,0 UV-I 12 W/m 0,0 km/h (0 Bft)
01.06.2014 21:24 15,7 C 13,3 C 66 % 1019,6 hPa 0,0 l/m 0 min 0 min 0,0 UV-I 11 W/m 0,0 km/h (0 Bft)
01.06.2014 21:26 15,6 C 12,8 C 66 % 1019,6 hPa 0,0 l/m 0 min 0 min 0,0 UV-I 11 W/m 0,0 km/h (0 Bft)
01.06.2014 21:28 15,6 C 12,8 C 67 % 1019,7 hPa 0,0 l/m 0 min 0 min 0,0 UV-I 9 W/m 0,0 km/h (0 Bft)
01.06.2014 21:30 15,4 C 12,8 C 67 % 1019,7 hPa 0,0 l/m 0 min 0 min 0,0 UV-I 9 W/m 0,0 km/h (0 Bft)
01.06.2014 21:32 15,3 C 12,8 C 67 % 1019,7 hPa 0,0 l/m 0 min 0 min 0,0 UV-I 7 W/m 0,0 km/h (0 Bft)
01.06.2014 21:34 15,2 C 12,2 C 68 % 1019,7 hPa 0,0 l/m 0 min 0 min 0,0 UV-I 7 W/m 0,0 km/h (0 Bft)
01.06.2014 21:36 15,1 C 12,2 C 69 % 1019,7 hPa 0,0 l/m 0 min 0 min 0,0 UV-I 7 W/m 0,0 km/h (0 Bft)
01.06.2014 21:38 15,0 C 12,2 C 69 % 1019,7 hPa 0,0 l/m 0 min 0 min 0,0 UV-I 5 W/m 0,0 km/h (0 Bft)
01.06.2014 21:40 14,9 C 12,2 C 70 % 1019,7 hPa 0,0 l/m 0 min 0 min 0,0 UV-I 5 W/m 0,0 km/h (0 Bft)
01.06.2014 21:42 14,9 C 12,2 C 71 % 1019,7 hPa 0,0 l/m 0 min 0 min 0,0 UV-I 5 W/m 0,0 km/h (0 Bft)
01.06.2014 21:44 14,8 C 12,2 C 72 % 1019,7 hPa 0,0 l/m 0 min 0 min 0,0 UV-I 5 W/m 0,0 km/h (0 Bft)
01.06.2014 21:46 14,8 C 11,7 C 73 % 1019,7 hPa 0,0 l/m 0 min 0 min 0,0 UV-I 0 W/m 0,0 km/h (0 Bft)
01.06.2014 21:48 14,7 C 11,7 C 73 % 1019,7 hPa 0,0 l/m 0 min 0 min 0,0 UV-I 0 W/m 0,0 km/h (0 Bft)
01.06.2014 21:50 14,6 C 11,7 C 74 % 1019,7 hPa 0,0 l/m 0 min 0 min 0,0 UV-I 0 W/m 0,0 km/h (0 Bft)
01.06.2014 21:52 14,5 C 11,7 C 74 % 1019,7 hPa 0,0 l/m 0 min 0 min 0,0 UV-I 0 W/m 0,0 km/h (0 Bft)
01.06.2014 21:54 14,4 C 11,7 C 74 % 1019,8 hPa 0,0 l/m 0 min 0 min 0,0 UV-I 0 W/m 0,0 km/h (0 Bft)
01.06.2014 21:56 14,3 C 11,7 C 75 % 1019,7 hPa 0,0 l/m 0 min 0 min 0,0 UV-I 0 W/m 0,0 km/h (0 Bft)
01.06.2014 21:58 14,3 C 11,7 C 75 % 1019,8 hPa 0,0 l/m 0 min 0 min 0,0 UV-I 0 W/m 0,0 km/h (0 Bft)
01.06.2014 22:00 14,2 C 11,7 C 75 % 1019,8 hPa 0,0 l/m 0 min 0 min 0,0 UV-I 0 W/m 0,0 km/h (0 Bft)
01.06.2014 22:02 14,2 C 11,1 C 75 % 1019,8 hPa 0,0 l/m 0 min 0 min 0,0 UV-I 0 W/m 0,0 km/h (0 Bft)
01.06.2014 22:06 14,1 C 11,1 C 77 % 1019,9 hPa 0,0 l/m 0 min 0 min 0,0 UV-I 0 W/m 0,0 km/h (0 Bft)
01.06.2014 22:08 13,9 C 11,1 C 77 % 1020,0 hPa 0,0 l/m 0 min 0 min 0,0 UV-I 0 W/m 0,0 km/h (0 Bft)
01.06.2014 22:10 13,8 C 11,1 C 77 % 1019,9 hPa 0,0 l/m 0 min 0 min 0,0 UV-I 0 W/m 0,0 km/h (0 Bft)
01.06.2014 22:12 13,7 C 11,1 C 77 % 1019,9 hPa 0,0 l/m 0 min 0 min 0,0 UV-I 0 W/m 0,0 km/h (0 Bft)
01.06.2014 22:14 13,6 C 11,1 C 78 % 1019,9 hPa 0,0 l/m 0 min 0 min 0,0 UV-I 0 W/m 0,0 km/h (0 Bft)
01.06.2014 22:16 13,4 C 11,1 C 78 % 1019,8 hPa 0,0 l/m 0 min 0 min 0,0 UV-I 0 W/m 0,0 km/h (0 Bft)
01.06.2014 22:18 13,4 C 11,1 C 79 % 1019,9 hPa 0,0 l/m 0 min 0 min 0,0 UV-I 0 W/m 0,0 km/h (0 Bft)
01.06.2014 22:20 13,2 C 10,6 C 79 % 1019,9 hPa 0,0 l/m 0 min 0 min 0,0 UV-I 0 W/m 0,0 km/h (0 Bft)
01.06.2014 22:22 13,2 C 10,6 C 79 % 1019,9 hPa 0,0 l/m 0 min 0 min 0,0 UV-I 0 W/m 0,0 km/h (0 Bft)
01.06.2014 22:24 13,1 C 10,6 C 79 % 1020,0 hPa 0,0 l/m 0 min 0 min 0,0 UV-I 0 W/m 0,0 km/h (0 Bft)
01.06.2014 22:26 13,0 C 10,6 C 79 % 1019,9 hPa 0,0 l/m 0 min 0 min 0,0 UV-I 0 W/m 0,0 km/h (0 Bft)
01.06.2014 22:28 12,9 C 10,6 C 80 % 1019,9 hPa 0,0 l/m 0 min 0 min 0,0 UV-I 0 W/m 0,0 km/h (0 Bft)
01.06.2014 22:30 12,9 C 10,6 C 79 % 1019,9 hPa 0,0 l/m 0 min 0 min 0,0 UV-I 0 W/m 0,0 km/h (0 Bft)
01.06.2014 22:32 12,9 C 10,6 C 80 % 1019,9 hPa 0,0 l/m 0 min 0 min 0,0 UV-I 0 W/m 0,0 km/h (0 Bft)
01.06.2014 22:34 12,9 C 10,6 C 80 % 1019,9 hPa 0,0 l/m 0 min 0 min 0,0 UV-I 0 W/m 0,0 km/h (0 Bft)
01.06.2014 22:36 12,9 C 10,6 C 81 % 1020,0 hPa 0,0 l/m 0 min 0 min 0,0 UV-I 0 W/m 0,0 km/h (0 Bft)
01.06.2014 22:38 12,8 C 10,6 C 81 % 1019,9 hPa 0,0 l/m 0 min 0 min 0,0 UV-I 0 W/m 0,0 km/h (0 Bft)
01.06.2014 22:40 12,7 C 10,0 C 81 % 1019,9 hPa 0,0 l/m 0 min 0 min 0,0 UV-I 0 W/m 0,0 km/h (0 Bft)
01.06.2014 22:42 12,7 C 10,0 C 81 % 1020,0 hPa 0,0 l/m 0 min 0 min 0,0 UV-I 0 W/m 0,0 km/h (0 Bft)
01.06.2014 22:44 12,6 C 10,0 C 81 % 1019,9 hPa 0,0 l/m 0 min 0 min 0,0 UV-I 0 W/m 0,0 km/h (0 Bft)
01.06.2014 22:46 12,6 C 10,0 C 81 % 1019,9 hPa 0,0 l/m 0 min 0 min 0,0 UV-I 0 W/m 0,0 km/h (0 Bft)
01.06.2014 22:48 12,5 C 10,0 C 81 % 1019,9 hPa 0,0 l/m 0 min 0 min 0,0 UV-I 0 W/m 0,0 km/h (0 Bft)
01.06.2014 22:50 12,4 C 10,0 C 81 % 1020,0 hPa 0,0 l/m 0 min 0 min 0,0 UV-I 0 W/m 0,0 km/h (0 Bft)
01.06.2014 22:52 12,4 C 10,0 C 82 % 1019,9 hPa 0,0 l/m 0 min 0 min 0,0 UV-I 0 W/m 0,0 km/h (0 Bft)
01.06.2014 22:54 12,3 C 10,0 C 82 % 1020,0 hPa 0,0 l/m 0 min 0 min 0,0 UV-I 0 W/m 0,0 km/h (0 Bft)
01.06.2014 22:56 12,3 C 10,0 C 82 % 1019,9 hPa 0,0 l/m 0 min 0 min 0,0 UV-I 0 W/m 0,0 km/h (0 Bft)
01.06.2014 22:58 12,2 C 10,0 C 82 % 1020,0 hPa 0,0 l/m 0 min 0 min 0,0 UV-I 0 W/m 0,0 km/h (0 Bft)
01.06.2014 23:00 12,2 C 10,0 C 83 % 1019,9 hPa 0,0 l/m 0 min 0 min 0,0 UV-I 0 W/m 0,0 km/h (0 Bft)
01.06.2014 23:02 12,2 C 10,0 C 83 % 1019,9 hPa 0,0 l/m 0 min 0 min 0,0 UV-I 0 W/m 0,0 km/h (0 Bft)
01.06.2014 23:06 12,2 C 10,0 C 83 % 1020,0 hPa 0,0 l/m 0 min 0 min 0,0 UV-I 0 W/m 0,0 km/h (0 Bft)
01.06.2014 23:08 12,1 C 10,0 C 83 % 1019,9 hPa 0,0 l/m 0 min 0 min 0,0 UV-I 0 W/m 0,0 km/h (0 Bft)
01.06.2014 23:10 12,1 C 10,0 C 83 % 1019,9 hPa 0,0 l/m 0 min 0 min 0,0 UV-I 0 W/m 0,0 km/h (0 Bft)
01.06.2014 23:12 12,0 C 9,4 C 83 % 1019,9 hPa 0,0 l/m 0 min 0 min 0,0 UV-I 0 W/m 0,0 km/h (0 Bft)
01.06.2014 23:14 12,0 C 9,4 C 83 % 1019,9 hPa 0,0 l/m 0 min 0 min 0,0 UV-I 0 W/m 0,0 km/h (0 Bft)
01.06.2014 23:16 11,9 C 9,4 C 84 % 1019,9 hPa 0,0 l/m 0 min 0 min 0,0 UV-I 0 W/m 0,0 km/h (0 Bft)
01.06.2014 23:18 11,9 C 9,4 C 84 % 1019,9 hPa 0,0 l/m 0 min 0 min 0,0 UV-I 0 W/m 0,0 km/h (0 Bft)
01.06.2014 23:20 11,9 C 9,4 C 84 % 1019,9 hPa 0,0 l/m 0 min 0 min 0,0 UV-I 0 W/m 0,0 km/h (0 Bft)
01.06.2014 23:22 11,8 C 9,4 C 84 % 1019,9 hPa 0,0 l/m 0 min 0 min 0,0 UV-I 0 W/m 0,0 km/h (0 Bft)
01.06.2014 23:24 11,8 C 9,4 C 84 % 1019,9 hPa 0,0 l/m 0 min 0 min 0,0 UV-I 0 W/m 0,0 km/h (0 Bft)
01.06.2014 23:26 11,7 C 9,4 C 85 % 1019,9 hPa 0,0 l/m 0 min 0 min 0,0 UV-I 0 W/m 0,0 km/h (0 Bft)
01.06.2014 23:28 11,7 C 9,4 C 85 % 1019,9 hPa 0,0 l/m 0 min 0 min 0,0 UV-I 0 W/m 0,0 km/h (0 Bft)
01.06.2014 23:30 11,7 C 9,4 C 85 % 1019,9 hPa 0,0 l/m 0 min 0 min 0,0 UV-I 0 W/m 0,0 km/h (0 Bft)
01.06.2014 23:32 11,6 C 9,4 C 85 % 1019,9 hPa 0,0 l/m 0 min 0 min 0,0 UV-I 0 W/m 0,0 km/h (0 Bft)
01.06.2014 23:34 11,5 C 9,4 C 85 % 1019,9 hPa 0,0 l/m 0 min 0 min 0,0 UV-I 0 W/m 0,0 km/h (0 Bft)
01.06.2014 23:36 11,5 C 9,4 C 86 % 1019,9 hPa 0,0 l/m 0 min 0 min 0,0 UV-I 0 W/m 0,0 km/h (0 Bft)
01.06.2014 23:38 11,4 C 9,4 C 86 % 1019,9 hPa 0,0 l/m 0 min 0 min 0,0 UV-I 0 W/m 0,0 km/h (0 Bft)
01.06.2014 23:40 11,4 C 9,4 C 86 % 1019,8 hPa 0,0 l/m 0 min 0 min 0,0 UV-I 0 W/m 0,0 km/h (0 Bft)
01.06.2014 23:42 11,3 C 9,4 C 87 % 1019,9 hPa 0,0 l/m 0 min 0 min 0,0 UV-I 0 W/m 0,0 km/h (0 Bft)
01.06.2014 23:44 11,3 C 9,4 C 87 % 1019,9 hPa 0,0 l/m 0 min 0 min 0,0 UV-I 0 W/m 0,0 km/h (0 Bft)
01.06.2014 23:46 11,2 C 8,9 C 87 % 1019,9 hPa 0,0 l/m 0 min 0 min 0,0 UV-I 0 W/m 0,0 km/h (0 Bft)
01.06.2014 23:48 11,2 C 8,9 C 87 % 1019,9 hPa 0,0 l/m 0 min 0 min 0,0 UV-I 0 W/m 0,0 km/h (0 Bft)
01.06.2014 23:50 11,1 C 8,9 C 87 % 1019,9 hPa 0,0 l/m 0 min 0 min 0,0 UV-I 0 W/m 0,0 km/h (0 Bft)
01.06.2014 23:52 11,1 C 8,9 C 87 % 1019,9 hPa 0,0 l/m 0 min 0 min 0,0 UV-I 0 W/m 0,0 km/h (0 Bft)
01.06.2014 23:54 11,1 C 8,9 C 88 % 1019,8 hPa 0,0 l/m 0 min 0 min 0,0 UV-I 0 W/m 0,0 km/h (0 Bft)
01.06.2014 23:56 11,0 C 8,9 C 88 % 1019,8 hPa 0,0 l/m 0 min 0 min 0,0 UV-I 0 W/m 0,0 km/h (0 Bft)
01.06.2014 23:58 11,0 C 8,9 C 88 % 1019,8 hPa 0,0 l/m 0 min 0 min 0,0 UV-I 0 W/m 0,0 km/h (0 Bft)
_ Min-Zeit 04:05 03:02 16:46 19:06 - - - - - 00:02
Minimum _ 9,6 C 8,3 C 50 % 1019,4 hPa - - - - - 0,0 km/h (0 Bft)
_ Max-Zeit 16:54 15:28 04:06 09:20 00:00 07:52 00:00 12:26 13:02 16:14
Maximum _ 19,4 C 23,3 C 89 % 1021,9 hPa 0,0 l/m 2 min 0 min 4,0 UV-I 1037 W/m 25,7 km/h
NW (4 Bft)
Durchschnitt _ 14,3 C 13,8 C 72 % 1020,9 hPa #0,0 l/m #6:12 h #0 min. 2,0 UV-I 331 W/m 4,9 km/h (1 Bft)
© 2014 W. Hausmann